<?xml version="1.0" encoding="UTF-8" standalone="no" ?>
<gpx xmlns="http://www.topografix.com/GPX/1/1" xmlns:xsi="http://www.w3.org/2001/XMLSchema-instance" xsi:schemaLocation="http://www.topografix.com/GPX/1/1 http://www.topografix.com/GPX/1/1/gpx.xsd" version="1.1" creator="VisuGPX - https://www.visugpx.com">
  <metadata>
    <name>Plumelec_Baud</name>
  </metadata>
  <trk>
    <name><![CDATA[11443980-Plumelec_Baud]]></name>
    <trkseg>
      <trkpt lat="47.83808" lon="-2.64042">
        <ele>156</ele>
        <time>2020-06-08T12:34:40Z</time>
      </trkpt>
      <trkpt lat="47.83797" lon="-2.64044">
        <ele>156</ele>
        <time>2020-06-08T12:34:49Z</time>
      </trkpt>
      <trkpt lat="47.83795" lon="-2.64065">
        <ele>156</ele>
        <time>2020-06-08T12:35:00Z</time>
      </trkpt>
      <trkpt lat="47.83786" lon="-2.64065">
        <ele>156</ele>
        <time>2020-06-08T12:35:07Z</time>
      </trkpt>
      <trkpt lat="47.83768" lon="-2.64072">
        <ele>157</ele>
        <time>2020-06-08T12:35:22Z</time>
      </trkpt>
      <trkpt lat="47.83767" lon="-2.6403">
        <ele>156</ele>
        <time>2020-06-08T12:35:45Z</time>
      </trkpt>
      <trkpt lat="47.83752" lon="-2.64027">
        <ele>156</ele>
        <time>2020-06-08T12:35:57Z</time>
      </trkpt>
      <trkpt lat="47.83735" lon="-2.64018">
        <ele>154</ele>
        <time>2020-06-08T12:36:12Z</time>
      </trkpt>
      <trkpt lat="47.83735" lon="-2.64004">
        <ele>154</ele>
        <time>2020-06-08T12:36:19Z</time>
      </trkpt>
      <trkpt lat="47.8369" lon="-2.63997">
        <ele>151</ele>
        <time>2020-06-08T12:36:55Z</time>
      </trkpt>
      <trkpt lat="47.83578" lon="-2.63996">
        <ele>143</ele>
        <time>2020-06-08T12:38:25Z</time>
      </trkpt>
      <trkpt lat="47.83563" lon="-2.64163">
        <ele>147</ele>
        <time>2020-06-08T12:39:56Z</time>
      </trkpt>
      <trkpt lat="47.83562" lon="-2.64265">
        <ele>150</ele>
        <time>2020-06-08T12:40:50Z</time>
      </trkpt>
      <trkpt lat="47.83458" lon="-2.64268">
        <ele>153</ele>
        <time>2020-06-08T12:42:14Z</time>
      </trkpt>
      <trkpt lat="47.83452" lon="-2.6427">
        <ele>153</ele>
        <time>2020-06-08T12:42:19Z</time>
      </trkpt>
      <trkpt lat="47.83449" lon="-2.64277">
        <ele>154</ele>
        <time>2020-06-08T12:42:23Z</time>
      </trkpt>
      <trkpt lat="47.83449" lon="-2.64311">
        <ele>155</ele>
        <time>2020-06-08T12:42:41Z</time>
      </trkpt>
      <trkpt lat="47.83446" lon="-2.64325">
        <ele>156</ele>
        <time>2020-06-08T12:42:49Z</time>
      </trkpt>
      <trkpt lat="47.83442" lon="-2.64327">
        <ele>156</ele>
        <time>2020-06-08T12:42:53Z</time>
      </trkpt>
      <trkpt lat="47.83359" lon="-2.6433">
        <ele>160</ele>
        <time>2020-06-08T12:43:59Z</time>
      </trkpt>
      <trkpt lat="47.83351" lon="-2.64332">
        <ele>160</ele>
        <time>2020-06-08T12:44:06Z</time>
      </trkpt>
      <trkpt lat="47.83359" lon="-2.64385">
        <ele>161</ele>
        <time>2020-06-08T12:44:35Z</time>
      </trkpt>
      <trkpt lat="47.8337" lon="-2.64503">
        <ele>158</ele>
        <time>2020-06-08T12:45:39Z</time>
      </trkpt>
      <trkpt lat="47.83374" lon="-2.64512">
        <ele>158</ele>
        <time>2020-06-08T12:45:45Z</time>
      </trkpt>
      <trkpt lat="47.8338" lon="-2.64518">
        <ele>157</ele>
        <time>2020-06-08T12:45:50Z</time>
      </trkpt>
      <trkpt lat="47.83411" lon="-2.64539">
        <ele>154</ele>
        <time>2020-06-08T12:46:18Z</time>
      </trkpt>
      <trkpt lat="47.83412" lon="-2.64537">
        <ele>155</ele>
        <time>2020-06-08T12:46:19Z</time>
      </trkpt>
      <trkpt lat="47.83388" lon="-2.64573">
        <ele>155</ele>
        <time>2020-06-08T12:46:46Z</time>
      </trkpt>
      <trkpt lat="47.83374" lon="-2.64605">
        <ele>156</ele>
        <time>2020-06-08T12:47:07Z</time>
      </trkpt>
      <trkpt lat="47.83368" lon="-2.64625">
        <ele>156</ele>
        <time>2020-06-08T12:47:19Z</time>
      </trkpt>
      <trkpt lat="47.83352" lon="-2.6462">
        <ele>158</ele>
        <time>2020-06-08T12:47:32Z</time>
      </trkpt>
      <trkpt lat="47.83337" lon="-2.64626">
        <ele>159</ele>
        <time>2020-06-08T12:47:44Z</time>
      </trkpt>
      <trkpt lat="47.83328" lon="-2.64627">
        <ele>159</ele>
        <time>2020-06-08T12:47:51Z</time>
      </trkpt>
      <trkpt lat="47.83319" lon="-2.64632">
        <ele>159</ele>
        <time>2020-06-08T12:47:59Z</time>
      </trkpt>
      <trkpt lat="47.83252" lon="-2.64696">
        <ele>158</ele>
        <time>2020-06-08T12:49:03Z</time>
      </trkpt>
      <trkpt lat="47.83224" lon="-2.64719">
        <ele>154</ele>
        <time>2020-06-08T12:49:28Z</time>
      </trkpt>
      <trkpt lat="47.832" lon="-2.65202">
        <ele>129</ele>
        <time>2020-06-08T12:53:49Z</time>
      </trkpt>
      <trkpt lat="47.83197" lon="-2.65307">
        <ele>123</ele>
        <time>2020-06-08T12:54:45Z</time>
      </trkpt>
      <trkpt lat="47.83245" lon="-2.65408">
        <ele>127</ele>
        <time>2020-06-08T12:55:52Z</time>
      </trkpt>
      <trkpt lat="47.83292" lon="-2.6554">
        <ele>133</ele>
        <time>2020-06-08T12:57:12Z</time>
      </trkpt>
      <trkpt lat="47.83328" lon="-2.65694">
        <ele>126</ele>
        <time>2020-06-08T12:58:40Z</time>
      </trkpt>
      <trkpt lat="47.83373" lon="-2.65728">
        <ele>129</ele>
        <time>2020-06-08T12:59:20Z</time>
      </trkpt>
      <trkpt lat="47.83291" lon="-2.65778">
        <ele>118</ele>
        <time>2020-06-08T13:00:31Z</time>
      </trkpt>
      <trkpt lat="47.83273" lon="-2.65782">
        <ele>115</ele>
        <time>2020-06-08T13:00:46Z</time>
      </trkpt>
      <trkpt lat="47.83257" lon="-2.65793">
        <ele>112</ele>
        <time>2020-06-08T13:01:00Z</time>
      </trkpt>
      <trkpt lat="47.83249" lon="-2.65803">
        <ele>111</ele>
        <time>2020-06-08T13:01:08Z</time>
      </trkpt>
      <trkpt lat="47.83241" lon="-2.65819">
        <ele>111</ele>
        <time>2020-06-08T13:01:19Z</time>
      </trkpt>
      <trkpt lat="47.83232" lon="-2.65846">
        <ele>110</ele>
        <time>2020-06-08T13:01:35Z</time>
      </trkpt>
      <trkpt lat="47.83191" lon="-2.65983">
        <ele>106</ele>
        <time>2020-06-08T13:02:56Z</time>
      </trkpt>
      <trkpt lat="47.83182" lon="-2.66038">
        <ele>105</ele>
        <time>2020-06-08T13:03:26Z</time>
      </trkpt>
      <trkpt lat="47.83184" lon="-2.66115">
        <ele>105</ele>
        <time>2020-06-08T13:04:07Z</time>
      </trkpt>
      <trkpt lat="47.83181" lon="-2.66153">
        <ele>104</ele>
        <time>2020-06-08T13:04:28Z</time>
      </trkpt>
      <trkpt lat="47.83166" lon="-2.66222">
        <ele>101</ele>
        <time>2020-06-08T13:05:07Z</time>
      </trkpt>
      <trkpt lat="47.83161" lon="-2.6626">
        <ele>99</ele>
        <time>2020-06-08T13:05:28Z</time>
      </trkpt>
      <trkpt lat="47.83162" lon="-2.66272">
        <ele>99</ele>
        <time>2020-06-08T13:05:34Z</time>
      </trkpt>
      <trkpt lat="47.83165" lon="-2.6627">
        <ele>99</ele>
        <time>2020-06-08T13:05:37Z</time>
      </trkpt>
      <trkpt lat="47.83162" lon="-2.66272">
        <ele>99</ele>
        <time>2020-06-08T13:05:39Z</time>
      </trkpt>
      <trkpt lat="47.83165" lon="-2.66288">
        <ele>98</ele>
        <time>2020-06-08T13:05:48Z</time>
      </trkpt>
      <trkpt lat="47.83203" lon="-2.66386">
        <ele>96</ele>
        <time>2020-06-08T13:06:49Z</time>
      </trkpt>
      <trkpt lat="47.83212" lon="-2.66424">
        <ele>94</ele>
        <time>2020-06-08T13:07:11Z</time>
      </trkpt>
      <trkpt lat="47.83223" lon="-2.66524">
        <ele>90</ele>
        <time>2020-06-08T13:08:05Z</time>
      </trkpt>
      <trkpt lat="47.83226" lon="-2.66592">
        <ele>88</ele>
        <time>2020-06-08T13:08:42Z</time>
      </trkpt>
      <trkpt lat="47.83218" lon="-2.66636">
        <ele>87</ele>
        <time>2020-06-08T13:09:07Z</time>
      </trkpt>
      <trkpt lat="47.83203" lon="-2.66684">
        <ele>85</ele>
        <time>2020-06-08T13:09:35Z</time>
      </trkpt>
      <trkpt lat="47.83193" lon="-2.66705">
        <ele>84</ele>
        <time>2020-06-08T13:09:49Z</time>
      </trkpt>
      <trkpt lat="47.83114" lon="-2.6681">
        <ele>80</ele>
        <time>2020-06-08T13:11:14Z</time>
      </trkpt>
      <trkpt lat="47.8316" lon="-2.66887">
        <ele>83</ele>
        <time>2020-06-08T13:12:09Z</time>
      </trkpt>
      <trkpt lat="47.8317" lon="-2.66908">
        <ele>85</ele>
        <time>2020-06-08T13:12:23Z</time>
      </trkpt>
      <trkpt lat="47.83177" lon="-2.66936">
        <ele>87</ele>
        <time>2020-06-08T13:12:39Z</time>
      </trkpt>
      <trkpt lat="47.83187" lon="-2.66997">
        <ele>90</ele>
        <time>2020-06-08T13:13:13Z</time>
      </trkpt>
      <trkpt lat="47.832" lon="-2.67055">
        <ele>90</ele>
        <time>2020-06-08T13:13:46Z</time>
      </trkpt>
      <trkpt lat="47.83249" lon="-2.67423">
        <ele>102</ele>
        <time>2020-06-08T13:17:07Z</time>
      </trkpt>
      <trkpt lat="47.83259" lon="-2.67484">
        <ele>105</ele>
        <time>2020-06-08T13:17:41Z</time>
      </trkpt>
      <trkpt lat="47.83292" lon="-2.67632">
        <ele>112</ele>
        <time>2020-06-08T13:19:05Z</time>
      </trkpt>
      <trkpt lat="47.83315" lon="-2.67703">
        <ele>112</ele>
        <time>2020-06-08T13:19:47Z</time>
      </trkpt>
      <trkpt lat="47.83331" lon="-2.67767">
        <ele>113</ele>
        <time>2020-06-08T13:20:24Z</time>
      </trkpt>
      <trkpt lat="47.83326" lon="-2.67799">
        <ele>114</ele>
        <time>2020-06-08T13:20:41Z</time>
      </trkpt>
      <trkpt lat="47.83309" lon="-2.67824">
        <ele>113</ele>
        <time>2020-06-08T13:21:01Z</time>
      </trkpt>
      <trkpt lat="47.83282" lon="-2.67841">
        <ele>111</ele>
        <time>2020-06-08T13:21:24Z</time>
      </trkpt>
      <trkpt lat="47.8327" lon="-2.67859">
        <ele>110</ele>
        <time>2020-06-08T13:21:38Z</time>
      </trkpt>
      <trkpt lat="47.83268" lon="-2.67906">
        <ele>111</ele>
        <time>2020-06-08T13:22:03Z</time>
      </trkpt>
      <trkpt lat="47.8327" lon="-2.67915">
        <ele>111</ele>
        <time>2020-06-08T13:22:08Z</time>
      </trkpt>
      <trkpt lat="47.83278" lon="-2.67929">
        <ele>111</ele>
        <time>2020-06-08T13:22:18Z</time>
      </trkpt>
      <trkpt lat="47.83282" lon="-2.67957">
        <ele>112</ele>
        <time>2020-06-08T13:22:33Z</time>
      </trkpt>
      <trkpt lat="47.83288" lon="-2.68054">
        <ele>113</ele>
        <time>2020-06-08T13:23:26Z</time>
      </trkpt>
      <trkpt lat="47.83299" lon="-2.6813">
        <ele>116</ele>
        <time>2020-06-08T13:24:08Z</time>
      </trkpt>
      <trkpt lat="47.83306" lon="-2.68153">
        <ele>116</ele>
        <time>2020-06-08T13:24:21Z</time>
      </trkpt>
      <trkpt lat="47.8334" lon="-2.68239">
        <ele>120</ele>
        <time>2020-06-08T13:25:15Z</time>
      </trkpt>
      <trkpt lat="47.83344" lon="-2.68266">
        <ele>121</ele>
        <time>2020-06-08T13:25:30Z</time>
      </trkpt>
      <trkpt lat="47.8334" lon="-2.68335">
        <ele>120</ele>
        <time>2020-06-08T13:26:07Z</time>
      </trkpt>
      <trkpt lat="47.83345" lon="-2.68365">
        <ele>121</ele>
        <time>2020-06-08T13:26:23Z</time>
      </trkpt>
      <trkpt lat="47.8337" lon="-2.68443">
        <ele>124</ele>
        <time>2020-06-08T13:27:10Z</time>
      </trkpt>
      <trkpt lat="47.83378" lon="-2.68492">
        <ele>125</ele>
        <time>2020-06-08T13:27:37Z</time>
      </trkpt>
      <trkpt lat="47.83383" lon="-2.68508">
        <ele>125</ele>
        <time>2020-06-08T13:27:46Z</time>
      </trkpt>
      <trkpt lat="47.83391" lon="-2.68624">
        <ele>121</ele>
        <time>2020-06-08T13:28:49Z</time>
      </trkpt>
      <trkpt lat="47.83421" lon="-2.68723">
        <ele>120</ele>
        <time>2020-06-08T13:29:48Z</time>
      </trkpt>
      <trkpt lat="47.83454" lon="-2.68722">
        <ele>122</ele>
        <time>2020-06-08T13:30:14Z</time>
      </trkpt>
      <trkpt lat="47.83459" lon="-2.6876">
        <ele>120</ele>
        <time>2020-06-08T13:30:35Z</time>
      </trkpt>
      <trkpt lat="47.83459" lon="-2.68814">
        <ele>117</ele>
        <time>2020-06-08T13:31:04Z</time>
      </trkpt>
      <trkpt lat="47.83455" lon="-2.68841">
        <ele>115</ele>
        <time>2020-06-08T13:31:19Z</time>
      </trkpt>
      <trkpt lat="47.83445" lon="-2.68851">
        <ele>115</ele>
        <time>2020-06-08T13:31:28Z</time>
      </trkpt>
      <trkpt lat="47.83439" lon="-2.68871">
        <ele>114</ele>
        <time>2020-06-08T13:31:40Z</time>
      </trkpt>
      <trkpt lat="47.83472" lon="-2.68912">
        <ele>117</ele>
        <time>2020-06-08T13:32:14Z</time>
      </trkpt>
      <trkpt lat="47.83502" lon="-2.68971">
        <ele>122</ele>
        <time>2020-06-08T13:32:54Z</time>
      </trkpt>
      <trkpt lat="47.8353" lon="-2.69062">
        <ele>126</ele>
        <time>2020-06-08T13:33:48Z</time>
      </trkpt>
      <trkpt lat="47.83558" lon="-2.6914">
        <ele>125</ele>
        <time>2020-06-08T13:34:36Z</time>
      </trkpt>
      <trkpt lat="47.83563" lon="-2.69172">
        <ele>126</ele>
        <time>2020-06-08T13:34:53Z</time>
      </trkpt>
      <trkpt lat="47.83556" lon="-2.69179">
        <ele>126</ele>
        <time>2020-06-08T13:35:00Z</time>
      </trkpt>
      <trkpt lat="47.83553" lon="-2.69224">
        <ele>127</ele>
        <time>2020-06-08T13:35:24Z</time>
      </trkpt>
      <trkpt lat="47.83552" lon="-2.69342">
        <ele>129</ele>
        <time>2020-06-08T13:36:28Z</time>
      </trkpt>
      <trkpt lat="47.83549" lon="-2.69359">
        <ele>129</ele>
        <time>2020-06-08T13:36:37Z</time>
      </trkpt>
      <trkpt lat="47.83545" lon="-2.69364">
        <ele>129</ele>
        <time>2020-06-08T13:36:41Z</time>
      </trkpt>
      <trkpt lat="47.83551" lon="-2.69374">
        <ele>129</ele>
        <time>2020-06-08T13:36:49Z</time>
      </trkpt>
      <trkpt lat="47.83547" lon="-2.69388">
        <ele>129</ele>
        <time>2020-06-08T13:36:57Z</time>
      </trkpt>
      <trkpt lat="47.83546" lon="-2.6941">
        <ele>130</ele>
        <time>2020-06-08T13:37:09Z</time>
      </trkpt>
      <trkpt lat="47.83564" lon="-2.69478">
        <ele>129</ele>
        <time>2020-06-08T13:37:48Z</time>
      </trkpt>
      <trkpt lat="47.83562" lon="-2.69515">
        <ele>128</ele>
        <time>2020-06-08T13:38:08Z</time>
      </trkpt>
      <trkpt lat="47.83564" lon="-2.69529">
        <ele>129</ele>
        <time>2020-06-08T13:38:16Z</time>
      </trkpt>
      <trkpt lat="47.83572" lon="-2.69554">
        <ele>129</ele>
        <time>2020-06-08T13:38:30Z</time>
      </trkpt>
      <trkpt lat="47.83574" lon="-2.69572">
        <ele>129</ele>
        <time>2020-06-08T13:38:40Z</time>
      </trkpt>
      <trkpt lat="47.8358" lon="-2.6958">
        <ele>130</ele>
        <time>2020-06-08T13:38:47Z</time>
      </trkpt>
      <trkpt lat="47.83587" lon="-2.69583">
        <ele>130</ele>
        <time>2020-06-08T13:38:53Z</time>
      </trkpt>
      <trkpt lat="47.83592" lon="-2.69591">
        <ele>130</ele>
        <time>2020-06-08T13:38:58Z</time>
      </trkpt>
      <trkpt lat="47.83618" lon="-2.69672">
        <ele>130</ele>
        <time>2020-06-08T13:39:47Z</time>
      </trkpt>
      <trkpt lat="47.83615" lon="-2.69743">
        <ele>131</ele>
        <time>2020-06-08T13:40:25Z</time>
      </trkpt>
      <trkpt lat="47.83653" lon="-2.69807">
        <ele>135</ele>
        <time>2020-06-08T13:41:11Z</time>
      </trkpt>
      <trkpt lat="47.83677" lon="-2.69841">
        <ele>137</ele>
        <time>2020-06-08T13:41:37Z</time>
      </trkpt>
      <trkpt lat="47.83692" lon="-2.69874">
        <ele>137</ele>
        <time>2020-06-08T13:41:59Z</time>
      </trkpt>
      <trkpt lat="47.83703" lon="-2.69887">
        <ele>136</ele>
        <time>2020-06-08T13:42:10Z</time>
      </trkpt>
      <trkpt lat="47.83711" lon="-2.69909">
        <ele>136</ele>
        <time>2020-06-08T13:42:23Z</time>
      </trkpt>
      <trkpt lat="47.83713" lon="-2.6993">
        <ele>136</ele>
        <time>2020-06-08T13:42:35Z</time>
      </trkpt>
      <trkpt lat="47.83709" lon="-2.69953">
        <ele>138</ele>
        <time>2020-06-08T13:42:48Z</time>
      </trkpt>
      <trkpt lat="47.83696" lon="-2.69994">
        <ele>141</ele>
        <time>2020-06-08T13:43:12Z</time>
      </trkpt>
      <trkpt lat="47.83677" lon="-2.70016">
        <ele>143</ele>
        <time>2020-06-08T13:43:31Z</time>
      </trkpt>
      <trkpt lat="47.83673" lon="-2.70025">
        <ele>143</ele>
        <time>2020-06-08T13:43:37Z</time>
      </trkpt>
      <trkpt lat="47.83649" lon="-2.70047">
        <ele>141</ele>
        <time>2020-06-08T13:44:00Z</time>
      </trkpt>
      <trkpt lat="47.8364" lon="-2.70065">
        <ele>139</ele>
        <time>2020-06-08T13:44:12Z</time>
      </trkpt>
      <trkpt lat="47.83646" lon="-2.70111">
        <ele>138</ele>
        <time>2020-06-08T13:44:37Z</time>
      </trkpt>
      <trkpt lat="47.83653" lon="-2.70144">
        <ele>138</ele>
        <time>2020-06-08T13:44:55Z</time>
      </trkpt>
      <trkpt lat="47.83657" lon="-2.70188">
        <ele>138</ele>
        <time>2020-06-08T13:45:19Z</time>
      </trkpt>
      <trkpt lat="47.83669" lon="-2.70253">
        <ele>140</ele>
        <time>2020-06-08T13:45:56Z</time>
      </trkpt>
      <trkpt lat="47.83681" lon="-2.70291">
        <ele>140</ele>
        <time>2020-06-08T13:46:18Z</time>
      </trkpt>
      <trkpt lat="47.83682" lon="-2.70308">
        <ele>141</ele>
        <time>2020-06-08T13:46:27Z</time>
      </trkpt>
      <trkpt lat="47.83687" lon="-2.70328">
        <ele>141</ele>
        <time>2020-06-08T13:46:39Z</time>
      </trkpt>
      <trkpt lat="47.83699" lon="-2.70362">
        <ele>142</ele>
        <time>2020-06-08T13:46:59Z</time>
      </trkpt>
      <trkpt lat="47.83712" lon="-2.70418">
        <ele>144</ele>
        <time>2020-06-08T13:47:31Z</time>
      </trkpt>
      <trkpt lat="47.83717" lon="-2.70451">
        <ele>144</ele>
        <time>2020-06-08T13:47:49Z</time>
      </trkpt>
      <trkpt lat="47.83726" lon="-2.70479">
        <ele>145</ele>
        <time>2020-06-08T13:48:06Z</time>
      </trkpt>
      <trkpt lat="47.83728" lon="-2.70509">
        <ele>144</ele>
        <time>2020-06-08T13:48:22Z</time>
      </trkpt>
      <trkpt lat="47.83735" lon="-2.70539">
        <ele>144</ele>
        <time>2020-06-08T13:48:39Z</time>
      </trkpt>
      <trkpt lat="47.83731" lon="-2.70598">
        <ele>142</ele>
        <time>2020-06-08T13:49:11Z</time>
      </trkpt>
      <trkpt lat="47.83733" lon="-2.70606">
        <ele>142</ele>
        <time>2020-06-08T13:49:16Z</time>
      </trkpt>
      <trkpt lat="47.83739" lon="-2.70608">
        <ele>144</ele>
        <time>2020-06-08T13:49:21Z</time>
      </trkpt>
      <trkpt lat="47.83741" lon="-2.70599">
        <ele>144</ele>
        <time>2020-06-08T13:49:26Z</time>
      </trkpt>
      <trkpt lat="47.83748" lon="-2.70595">
        <ele>145</ele>
        <time>2020-06-08T13:49:32Z</time>
      </trkpt>
      <trkpt lat="47.83752" lon="-2.70612">
        <ele>146</ele>
        <time>2020-06-08T13:49:42Z</time>
      </trkpt>
      <trkpt lat="47.83759" lon="-2.70682">
        <ele>145</ele>
        <time>2020-06-08T13:50:20Z</time>
      </trkpt>
      <trkpt lat="47.83778" lon="-2.70714">
        <ele>146</ele>
        <time>2020-06-08T13:50:43Z</time>
      </trkpt>
      <trkpt lat="47.83784" lon="-2.7072">
        <ele>147</ele>
        <time>2020-06-08T13:50:48Z</time>
      </trkpt>
      <trkpt lat="47.83788" lon="-2.70718">
        <ele>147</ele>
        <time>2020-06-08T13:50:52Z</time>
      </trkpt>
      <trkpt lat="47.83798" lon="-2.7073">
        <ele>148</ele>
        <time>2020-06-08T13:51:02Z</time>
      </trkpt>
      <trkpt lat="47.83798" lon="-2.70737">
        <ele>148</ele>
        <time>2020-06-08T13:51:06Z</time>
      </trkpt>
      <trkpt lat="47.83793" lon="-2.70747">
        <ele>148</ele>
        <time>2020-06-08T13:51:12Z</time>
      </trkpt>
      <trkpt lat="47.83791" lon="-2.70769">
        <ele>148</ele>
        <time>2020-06-08T13:51:24Z</time>
      </trkpt>
      <trkpt lat="47.83793" lon="-2.70783">
        <ele>148</ele>
        <time>2020-06-08T13:51:32Z</time>
      </trkpt>
      <trkpt lat="47.83804" lon="-2.70801">
        <ele>149</ele>
        <time>2020-06-08T13:51:45Z</time>
      </trkpt>
      <trkpt lat="47.8381" lon="-2.7083">
        <ele>150</ele>
        <time>2020-06-08T13:52:01Z</time>
      </trkpt>
      <trkpt lat="47.83808" lon="-2.70842">
        <ele>150</ele>
        <time>2020-06-08T13:52:08Z</time>
      </trkpt>
      <trkpt lat="47.83794" lon="-2.70876">
        <ele>148</ele>
        <time>2020-06-08T13:52:30Z</time>
      </trkpt>
      <trkpt lat="47.8379" lon="-2.70894">
        <ele>148</ele>
        <time>2020-06-08T13:52:40Z</time>
      </trkpt>
      <trkpt lat="47.83791" lon="-2.709">
        <ele>148</ele>
        <time>2020-06-08T13:52:43Z</time>
      </trkpt>
      <trkpt lat="47.83805" lon="-2.70918">
        <ele>148</ele>
        <time>2020-06-08T13:52:58Z</time>
      </trkpt>
      <trkpt lat="47.83805" lon="-2.70923">
        <ele>148</ele>
        <time>2020-06-08T13:53:01Z</time>
      </trkpt>
      <trkpt lat="47.83797" lon="-2.70941">
        <ele>147</ele>
        <time>2020-06-08T13:53:12Z</time>
      </trkpt>
      <trkpt lat="47.83803" lon="-2.70999">
        <ele>147</ele>
        <time>2020-06-08T13:53:44Z</time>
      </trkpt>
      <trkpt lat="47.83799" lon="-2.7105">
        <ele>146</ele>
        <time>2020-06-08T13:54:11Z</time>
      </trkpt>
      <trkpt lat="47.83801" lon="-2.71081">
        <ele>146</ele>
        <time>2020-06-08T13:54:28Z</time>
      </trkpt>
      <trkpt lat="47.83804" lon="-2.7109">
        <ele>146</ele>
        <time>2020-06-08T13:54:33Z</time>
      </trkpt>
      <trkpt lat="47.83809" lon="-2.71096">
        <ele>146</ele>
        <time>2020-06-08T13:54:39Z</time>
      </trkpt>
      <trkpt lat="47.83822" lon="-2.71159">
        <ele>147</ele>
        <time>2020-06-08T13:55:14Z</time>
      </trkpt>
      <trkpt lat="47.83838" lon="-2.712">
        <ele>147</ele>
        <time>2020-06-08T13:55:39Z</time>
      </trkpt>
      <trkpt lat="47.83841" lon="-2.71229">
        <ele>146</ele>
        <time>2020-06-08T13:55:55Z</time>
      </trkpt>
      <trkpt lat="47.83859" lon="-2.71247">
        <ele>144</ele>
        <time>2020-06-08T13:56:13Z</time>
      </trkpt>
      <trkpt lat="47.83863" lon="-2.71256">
        <ele>143</ele>
        <time>2020-06-08T13:56:18Z</time>
      </trkpt>
      <trkpt lat="47.83867" lon="-2.71284">
        <ele>142</ele>
        <time>2020-06-08T13:56:34Z</time>
      </trkpt>
      <trkpt lat="47.83863" lon="-2.71322">
        <ele>140</ele>
        <time>2020-06-08T13:56:54Z</time>
      </trkpt>
      <trkpt lat="47.83865" lon="-2.71331">
        <ele>140</ele>
        <time>2020-06-08T13:57:00Z</time>
      </trkpt>
      <trkpt lat="47.83887" lon="-2.71379">
        <ele>139</ele>
        <time>2020-06-08T13:57:31Z</time>
      </trkpt>
      <trkpt lat="47.83903" lon="-2.71421">
        <ele>138</ele>
        <time>2020-06-08T13:57:57Z</time>
      </trkpt>
      <trkpt lat="47.839" lon="-2.7146">
        <ele>136</ele>
        <time>2020-06-08T13:58:18Z</time>
      </trkpt>
      <trkpt lat="47.83901" lon="-2.71476">
        <ele>135</ele>
        <time>2020-06-08T13:58:26Z</time>
      </trkpt>
      <trkpt lat="47.83909" lon="-2.71485">
        <ele>135</ele>
        <time>2020-06-08T13:58:35Z</time>
      </trkpt>
      <trkpt lat="47.83917" lon="-2.71514">
        <ele>134</ele>
        <time>2020-06-08T13:58:51Z</time>
      </trkpt>
      <trkpt lat="47.83916" lon="-2.71549">
        <ele>133</ele>
        <time>2020-06-08T13:59:10Z</time>
      </trkpt>
      <trkpt lat="47.83921" lon="-2.71571">
        <ele>131</ele>
        <time>2020-06-08T13:59:23Z</time>
      </trkpt>
      <trkpt lat="47.83919" lon="-2.71595">
        <ele>130</ele>
        <time>2020-06-08T13:59:36Z</time>
      </trkpt>
      <trkpt lat="47.83925" lon="-2.71617">
        <ele>128</ele>
        <time>2020-06-08T13:59:48Z</time>
      </trkpt>
      <trkpt lat="47.83926" lon="-2.71648">
        <ele>127</ele>
        <time>2020-06-08T14:00:05Z</time>
      </trkpt>
      <trkpt lat="47.83935" lon="-2.71671">
        <ele>125</ele>
        <time>2020-06-08T14:00:19Z</time>
      </trkpt>
      <trkpt lat="47.83943" lon="-2.71704">
        <ele>122</ele>
        <time>2020-06-08T14:00:38Z</time>
      </trkpt>
      <trkpt lat="47.83961" lon="-2.71731">
        <ele>119</ele>
        <time>2020-06-08T14:00:59Z</time>
      </trkpt>
      <trkpt lat="47.83965" lon="-2.71732">
        <ele>118</ele>
        <time>2020-06-08T14:01:02Z</time>
      </trkpt>
      <trkpt lat="47.83968" lon="-2.71729">
        <ele>118</ele>
        <time>2020-06-08T14:01:05Z</time>
      </trkpt>
      <trkpt lat="47.8399" lon="-2.71672">
        <ele>119</ele>
        <time>2020-06-08T14:01:40Z</time>
      </trkpt>
      <trkpt lat="47.83998" lon="-2.71665">
        <ele>118</ele>
        <time>2020-06-08T14:01:48Z</time>
      </trkpt>
      <trkpt lat="47.84004" lon="-2.71663">
        <ele>118</ele>
        <time>2020-06-08T14:01:53Z</time>
      </trkpt>
      <trkpt lat="47.84033" lon="-2.71668">
        <ele>116</ele>
        <time>2020-06-08T14:02:16Z</time>
      </trkpt>
      <trkpt lat="47.84035" lon="-2.71681">
        <ele>115</ele>
        <time>2020-06-08T14:02:23Z</time>
      </trkpt>
      <trkpt lat="47.84016" lon="-2.71843">
        <ele>107</ele>
        <time>2020-06-08T14:03:51Z</time>
      </trkpt>
      <trkpt lat="47.84027" lon="-2.7184">
        <ele>107</ele>
        <time>2020-06-08T14:04:00Z</time>
      </trkpt>
      <trkpt lat="47.84036" lon="-2.71841">
        <ele>107</ele>
        <time>2020-06-08T14:04:08Z</time>
      </trkpt>
      <trkpt lat="47.84056" lon="-2.71851">
        <ele>107</ele>
        <time>2020-06-08T14:04:25Z</time>
      </trkpt>
      <trkpt lat="47.84071" lon="-2.71869">
        <ele>107</ele>
        <time>2020-06-08T14:04:40Z</time>
      </trkpt>
      <trkpt lat="47.84102" lon="-2.71924">
        <ele>108</ele>
        <time>2020-06-08T14:05:19Z</time>
      </trkpt>
      <trkpt lat="47.84106" lon="-2.71941">
        <ele>110</ele>
        <time>2020-06-08T14:05:28Z</time>
      </trkpt>
      <trkpt lat="47.84134" lon="-2.71945">
        <ele>111</ele>
        <time>2020-06-08T14:05:51Z</time>
      </trkpt>
      <trkpt lat="47.84153" lon="-2.71957">
        <ele>112</ele>
        <time>2020-06-08T14:06:07Z</time>
      </trkpt>
      <trkpt lat="47.84159" lon="-2.71969">
        <ele>112</ele>
        <time>2020-06-08T14:06:15Z</time>
      </trkpt>
      <trkpt lat="47.84161" lon="-2.71981">
        <ele>113</ele>
        <time>2020-06-08T14:06:22Z</time>
      </trkpt>
      <trkpt lat="47.84163" lon="-2.71999">
        <ele>113</ele>
        <time>2020-06-08T14:06:32Z</time>
      </trkpt>
      <trkpt lat="47.84141" lon="-2.72214">
        <ele>118</ele>
        <time>2020-06-08T14:08:29Z</time>
      </trkpt>
      <trkpt lat="47.84141" lon="-2.72224">
        <ele>118</ele>
        <time>2020-06-08T14:08:34Z</time>
      </trkpt>
      <trkpt lat="47.84147" lon="-2.72227">
        <ele>118</ele>
        <time>2020-06-08T14:08:39Z</time>
      </trkpt>
      <trkpt lat="47.84141" lon="-2.72224">
        <ele>118</ele>
        <time>2020-06-08T14:08:44Z</time>
      </trkpt>
      <trkpt lat="47.84106" lon="-2.72232">
        <ele>120</ele>
        <time>2020-06-08T14:09:13Z</time>
      </trkpt>
      <trkpt lat="47.84069" lon="-2.72229">
        <ele>120</ele>
        <time>2020-06-08T14:09:42Z</time>
      </trkpt>
      <trkpt lat="47.8407" lon="-2.72554">
        <ele>136</ele>
        <time>2020-06-08T14:12:37Z</time>
      </trkpt>
      <trkpt lat="47.84072" lon="-2.72571">
        <ele>136</ele>
        <time>2020-06-08T14:12:46Z</time>
      </trkpt>
      <trkpt lat="47.84074" lon="-2.72586">
        <ele>136</ele>
        <time>2020-06-08T14:12:54Z</time>
      </trkpt>
      <trkpt lat="47.8413" lon="-2.72756">
        <ele>135</ele>
        <time>2020-06-08T14:14:36Z</time>
      </trkpt>
      <trkpt lat="47.8414" lon="-2.72798">
        <ele>134</ele>
        <time>2020-06-08T14:15:00Z</time>
      </trkpt>
      <trkpt lat="47.84118" lon="-2.73178">
        <ele>131</ele>
        <time>2020-06-08T14:18:25Z</time>
      </trkpt>
      <trkpt lat="47.84119" lon="-2.73468">
        <ele>127</ele>
        <time>2020-06-08T14:21:01Z</time>
      </trkpt>
      <trkpt lat="47.84145" lon="-2.73448">
        <ele>128</ele>
        <time>2020-06-08T14:21:24Z</time>
      </trkpt>
      <trkpt lat="47.84163" lon="-2.73429">
        <ele>130</ele>
        <time>2020-06-08T14:21:42Z</time>
      </trkpt>
      <trkpt lat="47.84177" lon="-2.73401">
        <ele>128</ele>
        <time>2020-06-08T14:22:01Z</time>
      </trkpt>
      <trkpt lat="47.84187" lon="-2.73358">
        <ele>125</ele>
        <time>2020-06-08T14:22:25Z</time>
      </trkpt>
      <trkpt lat="47.84192" lon="-2.73323">
        <ele>124</ele>
        <time>2020-06-08T14:22:44Z</time>
      </trkpt>
      <trkpt lat="47.84198" lon="-2.73309">
        <ele>123</ele>
        <time>2020-06-08T14:22:53Z</time>
      </trkpt>
      <trkpt lat="47.84208" lon="-2.7331">
        <ele>121</ele>
        <time>2020-06-08T14:23:01Z</time>
      </trkpt>
      <trkpt lat="47.84215" lon="-2.73331">
        <ele>120</ele>
        <time>2020-06-08T14:23:14Z</time>
      </trkpt>
      <trkpt lat="47.84225" lon="-2.73422">
        <ele>120</ele>
        <time>2020-06-08T14:24:04Z</time>
      </trkpt>
      <trkpt lat="47.84238" lon="-2.73463">
        <ele>117</ele>
        <time>2020-06-08T14:24:28Z</time>
      </trkpt>
      <trkpt lat="47.84294" lon="-2.73546">
        <ele>110</ele>
        <time>2020-06-08T14:25:31Z</time>
      </trkpt>
      <trkpt lat="47.84318" lon="-2.73591">
        <ele>107</ele>
        <time>2020-06-08T14:26:02Z</time>
      </trkpt>
      <trkpt lat="47.84332" lon="-2.73594">
        <ele>105</ele>
        <time>2020-06-08T14:26:13Z</time>
      </trkpt>
      <trkpt lat="47.84346" lon="-2.73592">
        <ele>104</ele>
        <time>2020-06-08T14:26:25Z</time>
      </trkpt>
      <trkpt lat="47.84348" lon="-2.73624">
        <ele>104</ele>
        <time>2020-06-08T14:26:42Z</time>
      </trkpt>
      <trkpt lat="47.84357" lon="-2.73625">
        <ele>103</ele>
        <time>2020-06-08T14:26:49Z</time>
      </trkpt>
      <trkpt lat="47.84449" lon="-2.73615">
        <ele>97</ele>
        <time>2020-06-08T14:28:03Z</time>
      </trkpt>
      <trkpt lat="47.84462" lon="-2.73609">
        <ele>96</ele>
        <time>2020-06-08T14:28:14Z</time>
      </trkpt>
      <trkpt lat="47.84469" lon="-2.73611">
        <ele>96</ele>
        <time>2020-06-08T14:28:20Z</time>
      </trkpt>
      <trkpt lat="47.84489" lon="-2.7361">
        <ele>94</ele>
        <time>2020-06-08T14:28:36Z</time>
      </trkpt>
      <trkpt lat="47.84742" lon="-2.73579">
        <ele>79</ele>
        <time>2020-06-08T14:31:59Z</time>
      </trkpt>
      <trkpt lat="47.84748" lon="-2.73586">
        <ele>78</ele>
        <time>2020-06-08T14:32:05Z</time>
      </trkpt>
      <trkpt lat="47.84753" lon="-2.73598">
        <ele>79</ele>
        <time>2020-06-08T14:32:13Z</time>
      </trkpt>
      <trkpt lat="47.84776" lon="-2.73681">
        <ele>79</ele>
        <time>2020-06-08T14:33:01Z</time>
      </trkpt>
      <trkpt lat="47.84775" lon="-2.73741">
        <ele>81</ele>
        <time>2020-06-08T14:33:33Z</time>
      </trkpt>
      <trkpt lat="47.84777" lon="-2.73765">
        <ele>81</ele>
        <time>2020-06-08T14:33:46Z</time>
      </trkpt>
      <trkpt lat="47.84856" lon="-2.73755">
        <ele>71</ele>
        <time>2020-06-08T14:34:50Z</time>
      </trkpt>
      <trkpt lat="47.84935" lon="-2.7375">
        <ele>70</ele>
        <time>2020-06-08T14:35:53Z</time>
      </trkpt>
      <trkpt lat="47.8501" lon="-2.73751">
        <ele>76</ele>
        <time>2020-06-08T14:36:53Z</time>
      </trkpt>
      <trkpt lat="47.85169" lon="-2.73746">
        <ele>83</ele>
        <time>2020-06-08T14:39:00Z</time>
      </trkpt>
      <trkpt lat="47.85189" lon="-2.73748">
        <ele>84</ele>
        <time>2020-06-08T14:39:16Z</time>
      </trkpt>
      <trkpt lat="47.85255" lon="-2.73746">
        <ele>86</ele>
        <time>2020-06-08T14:40:09Z</time>
      </trkpt>
      <trkpt lat="47.85346" lon="-2.73748">
        <ele>86</ele>
        <time>2020-06-08T14:41:22Z</time>
      </trkpt>
      <trkpt lat="47.85478" lon="-2.73754">
        <ele>86</ele>
        <time>2020-06-08T14:43:08Z</time>
      </trkpt>
      <trkpt lat="47.85486" lon="-2.73753">
        <ele>86</ele>
        <time>2020-06-08T14:43:14Z</time>
      </trkpt>
      <trkpt lat="47.85495" lon="-2.7374">
        <ele>86</ele>
        <time>2020-06-08T14:43:24Z</time>
      </trkpt>
      <trkpt lat="47.85647" lon="-2.74888">
        <ele>96</ele>
        <time>2020-06-08T14:53:53Z</time>
      </trkpt>
      <trkpt lat="47.8572" lon="-2.74867">
        <ele>97</ele>
        <time>2020-06-08T14:54:52Z</time>
      </trkpt>
      <trkpt lat="47.85872" lon="-2.74814">
        <ele>97</ele>
        <time>2020-06-08T14:56:57Z</time>
      </trkpt>
      <trkpt lat="47.85875" lon="-2.75334">
        <ele>74</ele>
        <time>2020-06-08T15:01:37Z</time>
      </trkpt>
      <trkpt lat="47.8588" lon="-2.75359">
        <ele>73</ele>
        <time>2020-06-08T15:01:51Z</time>
      </trkpt>
      <trkpt lat="47.85892" lon="-2.75393">
        <ele>71</ele>
        <time>2020-06-08T15:02:11Z</time>
      </trkpt>
      <trkpt lat="47.85911" lon="-2.75416">
        <ele>71</ele>
        <time>2020-06-08T15:02:31Z</time>
      </trkpt>
      <trkpt lat="47.85947" lon="-2.75439">
        <ele>69</ele>
        <time>2020-06-08T15:03:02Z</time>
      </trkpt>
      <trkpt lat="47.85978" lon="-2.75453">
        <ele>68</ele>
        <time>2020-06-08T15:03:28Z</time>
      </trkpt>
      <trkpt lat="47.86031" lon="-2.75472">
        <ele>70</ele>
        <time>2020-06-08T15:04:12Z</time>
      </trkpt>
      <trkpt lat="47.8604" lon="-2.75503">
        <ele>71</ele>
        <time>2020-06-08T15:04:30Z</time>
      </trkpt>
      <trkpt lat="47.86047" lon="-2.75517">
        <ele>72</ele>
        <time>2020-06-08T15:04:39Z</time>
      </trkpt>
      <trkpt lat="47.86054" lon="-2.75525">
        <ele>73</ele>
        <time>2020-06-08T15:04:47Z</time>
      </trkpt>
      <trkpt lat="47.86067" lon="-2.75532">
        <ele>75</ele>
        <time>2020-06-08T15:04:58Z</time>
      </trkpt>
      <trkpt lat="47.86093" lon="-2.75541">
        <ele>78</ele>
        <time>2020-06-08T15:05:19Z</time>
      </trkpt>
      <trkpt lat="47.86115" lon="-2.75547">
        <ele>80</ele>
        <time>2020-06-08T15:05:37Z</time>
      </trkpt>
      <trkpt lat="47.8614" lon="-2.75549">
        <ele>83</ele>
        <time>2020-06-08T15:05:57Z</time>
      </trkpt>
      <trkpt lat="47.8616" lon="-2.75547">
        <ele>86</ele>
        <time>2020-06-08T15:06:13Z</time>
      </trkpt>
      <trkpt lat="47.86259" lon="-2.75515">
        <ele>92</ele>
        <time>2020-06-08T15:07:34Z</time>
      </trkpt>
      <trkpt lat="47.86269" lon="-2.75515">
        <ele>93</ele>
        <time>2020-06-08T15:07:42Z</time>
      </trkpt>
      <trkpt lat="47.86298" lon="-2.7553">
        <ele>94</ele>
        <time>2020-06-08T15:08:07Z</time>
      </trkpt>
      <trkpt lat="47.86314" lon="-2.75534">
        <ele>94</ele>
        <time>2020-06-08T15:08:20Z</time>
      </trkpt>
      <trkpt lat="47.86339" lon="-2.75533">
        <ele>94</ele>
        <time>2020-06-08T15:08:40Z</time>
      </trkpt>
      <trkpt lat="47.86378" lon="-2.75526">
        <ele>94</ele>
        <time>2020-06-08T15:09:11Z</time>
      </trkpt>
      <trkpt lat="47.86387" lon="-2.75528">
        <ele>94</ele>
        <time>2020-06-08T15:09:18Z</time>
      </trkpt>
      <trkpt lat="47.8639" lon="-2.75531">
        <ele>94</ele>
        <time>2020-06-08T15:09:21Z</time>
      </trkpt>
      <trkpt lat="47.86394" lon="-2.75538">
        <ele>94</ele>
        <time>2020-06-08T15:09:26Z</time>
      </trkpt>
      <trkpt lat="47.86397" lon="-2.75552">
        <ele>95</ele>
        <time>2020-06-08T15:09:34Z</time>
      </trkpt>
      <trkpt lat="47.86394" lon="-2.75599">
        <ele>95</ele>
        <time>2020-06-08T15:10:00Z</time>
      </trkpt>
      <trkpt lat="47.86396" lon="-2.75638">
        <ele>96</ele>
        <time>2020-06-08T15:10:21Z</time>
      </trkpt>
      <trkpt lat="47.86401" lon="-2.75678">
        <ele>96</ele>
        <time>2020-06-08T15:10:42Z</time>
      </trkpt>
      <trkpt lat="47.86409" lon="-2.75717">
        <ele>97</ele>
        <time>2020-06-08T15:11:04Z</time>
      </trkpt>
      <trkpt lat="47.86457" lon="-2.75876">
        <ele>99</ele>
        <time>2020-06-08T15:12:38Z</time>
      </trkpt>
      <trkpt lat="47.86476" lon="-2.75929">
        <ele>99</ele>
        <time>2020-06-08T15:13:10Z</time>
      </trkpt>
      <trkpt lat="47.86489" lon="-2.7598">
        <ele>97</ele>
        <time>2020-06-08T15:13:40Z</time>
      </trkpt>
      <trkpt lat="47.8652" lon="-2.7624">
        <ele>91</ele>
        <time>2020-06-08T15:16:01Z</time>
      </trkpt>
      <trkpt lat="47.86617" lon="-2.76272">
        <ele>90</ele>
        <time>2020-06-08T15:17:21Z</time>
      </trkpt>
      <trkpt lat="47.8671" lon="-2.76297">
        <ele>94</ele>
        <time>2020-06-08T15:18:37Z</time>
      </trkpt>
      <trkpt lat="47.86793" lon="-2.76325">
        <ele>97</ele>
        <time>2020-06-08T15:19:45Z</time>
      </trkpt>
      <trkpt lat="47.86805" lon="-2.76326">
        <ele>97</ele>
        <time>2020-06-08T15:19:54Z</time>
      </trkpt>
      <trkpt lat="47.87064" lon="-2.76296">
        <ele>113</ele>
        <time>2020-06-08T15:23:22Z</time>
      </trkpt>
      <trkpt lat="47.87081" lon="-2.76298">
        <ele>115</ele>
        <time>2020-06-08T15:23:36Z</time>
      </trkpt>
      <trkpt lat="47.87095" lon="-2.76304">
        <ele>115</ele>
        <time>2020-06-08T15:23:48Z</time>
      </trkpt>
      <trkpt lat="47.87113" lon="-2.7632">
        <ele>116</ele>
        <time>2020-06-08T15:24:04Z</time>
      </trkpt>
      <trkpt lat="47.87163" lon="-2.76425">
        <ele>123</ele>
        <time>2020-06-08T15:25:14Z</time>
      </trkpt>
      <trkpt lat="47.87179" lon="-2.76465">
        <ele>124</ele>
        <time>2020-06-08T15:25:39Z</time>
      </trkpt>
      <trkpt lat="47.87212" lon="-2.76563">
        <ele>120</ele>
        <time>2020-06-08T15:26:38Z</time>
      </trkpt>
      <trkpt lat="47.87235" lon="-2.76608">
        <ele>117</ele>
        <time>2020-06-08T15:27:08Z</time>
      </trkpt>
      <trkpt lat="47.87249" lon="-2.76626">
        <ele>116</ele>
        <time>2020-06-08T15:27:23Z</time>
      </trkpt>
      <trkpt lat="47.87414" lon="-2.76823">
        <ele>115</ele>
        <time>2020-06-08T15:30:12Z</time>
      </trkpt>
      <trkpt lat="47.87424" lon="-2.76828">
        <ele>115</ele>
        <time>2020-06-08T15:30:20Z</time>
      </trkpt>
      <trkpt lat="47.87466" lon="-2.76838">
        <ele>114</ele>
        <time>2020-06-08T15:30:54Z</time>
      </trkpt>
      <trkpt lat="47.87477" lon="-2.76844">
        <ele>114</ele>
        <time>2020-06-08T15:31:04Z</time>
      </trkpt>
      <trkpt lat="47.87491" lon="-2.76856">
        <ele>115</ele>
        <time>2020-06-08T15:31:17Z</time>
      </trkpt>
      <trkpt lat="47.87502" lon="-2.76869">
        <ele>115</ele>
        <time>2020-06-08T15:31:28Z</time>
      </trkpt>
      <trkpt lat="47.87563" lon="-2.7697">
        <ele>115</ele>
        <time>2020-06-08T15:32:41Z</time>
      </trkpt>
      <trkpt lat="47.87597" lon="-2.77014">
        <ele>115</ele>
        <time>2020-06-08T15:33:17Z</time>
      </trkpt>
      <trkpt lat="47.87613" lon="-2.77024">
        <ele>114</ele>
        <time>2020-06-08T15:33:31Z</time>
      </trkpt>
      <trkpt lat="47.87626" lon="-2.77029">
        <ele>114</ele>
        <time>2020-06-08T15:33:42Z</time>
      </trkpt>
      <trkpt lat="47.87668" lon="-2.77033">
        <ele>114</ele>
        <time>2020-06-08T15:34:15Z</time>
      </trkpt>
      <trkpt lat="47.8768" lon="-2.77037">
        <ele>114</ele>
        <time>2020-06-08T15:34:25Z</time>
      </trkpt>
      <trkpt lat="47.87698" lon="-2.77051">
        <ele>113</ele>
        <time>2020-06-08T15:34:41Z</time>
      </trkpt>
      <trkpt lat="47.87773" lon="-2.77166">
        <ele>117</ele>
        <time>2020-06-08T15:36:08Z</time>
      </trkpt>
      <trkpt lat="47.877" lon="-2.77294">
        <ele>120</ele>
        <time>2020-06-08T15:37:38Z</time>
      </trkpt>
      <trkpt lat="47.87696" lon="-2.7731">
        <ele>121</ele>
        <time>2020-06-08T15:37:47Z</time>
      </trkpt>
      <trkpt lat="47.87726" lon="-2.77334">
        <ele>121</ele>
        <time>2020-06-08T15:38:14Z</time>
      </trkpt>
      <trkpt lat="47.87778" lon="-2.77368">
        <ele>123</ele>
        <time>2020-06-08T15:39:00Z</time>
      </trkpt>
      <trkpt lat="47.87796" lon="-2.77383">
        <ele>123</ele>
        <time>2020-06-08T15:39:16Z</time>
      </trkpt>
      <trkpt lat="47.87816" lon="-2.77416">
        <ele>125</ele>
        <time>2020-06-08T15:39:40Z</time>
      </trkpt>
      <trkpt lat="47.87829" lon="-2.77447">
        <ele>125</ele>
        <time>2020-06-08T15:40:00Z</time>
      </trkpt>
      <trkpt lat="47.87831" lon="-2.77463">
        <ele>125</ele>
        <time>2020-06-08T15:40:09Z</time>
      </trkpt>
      <trkpt lat="47.87802" lon="-2.77473">
        <ele>127</ele>
        <time>2020-06-08T15:40:32Z</time>
      </trkpt>
      <trkpt lat="47.87795" lon="-2.77491">
        <ele>128</ele>
        <time>2020-06-08T15:40:44Z</time>
      </trkpt>
      <trkpt lat="47.87743" lon="-2.77539">
        <ele>133</ele>
        <time>2020-06-08T15:41:33Z</time>
      </trkpt>
      <trkpt lat="47.87729" lon="-2.77544">
        <ele>134</ele>
        <time>2020-06-08T15:41:44Z</time>
      </trkpt>
      <trkpt lat="47.87713" lon="-2.77545">
        <ele>135</ele>
        <time>2020-06-08T15:41:57Z</time>
      </trkpt>
      <trkpt lat="47.87693" lon="-2.77551">
        <ele>136</ele>
        <time>2020-06-08T15:42:13Z</time>
      </trkpt>
      <trkpt lat="47.87668" lon="-2.77563">
        <ele>138</ele>
        <time>2020-06-08T15:42:34Z</time>
      </trkpt>
      <trkpt lat="47.87619" lon="-2.77593">
        <ele>140</ele>
        <time>2020-06-08T15:43:17Z</time>
      </trkpt>
      <trkpt lat="47.87605" lon="-2.77604">
        <ele>140</ele>
        <time>2020-06-08T15:43:29Z</time>
      </trkpt>
      <trkpt lat="47.87591" lon="-2.77621">
        <ele>141</ele>
        <time>2020-06-08T15:43:44Z</time>
      </trkpt>
      <trkpt lat="47.8758" lon="-2.7763">
        <ele>142</ele>
        <time>2020-06-08T15:43:54Z</time>
      </trkpt>
      <trkpt lat="47.87568" lon="-2.77638">
        <ele>142</ele>
        <time>2020-06-08T15:44:04Z</time>
      </trkpt>
      <trkpt lat="47.87538" lon="-2.7765">
        <ele>143</ele>
        <time>2020-06-08T15:44:29Z</time>
      </trkpt>
      <trkpt lat="47.87517" lon="-2.77665">
        <ele>145</ele>
        <time>2020-06-08T15:44:48Z</time>
      </trkpt>
      <trkpt lat="47.87456" lon="-2.77684">
        <ele>145</ele>
        <time>2020-06-08T15:45:38Z</time>
      </trkpt>
      <trkpt lat="47.8743" lon="-2.77682">
        <ele>144</ele>
        <time>2020-06-08T15:45:59Z</time>
      </trkpt>
      <trkpt lat="47.87395" lon="-2.77671">
        <ele>141</ele>
        <time>2020-06-08T15:46:27Z</time>
      </trkpt>
      <trkpt lat="47.87371" lon="-2.77678">
        <ele>139</ele>
        <time>2020-06-08T15:46:47Z</time>
      </trkpt>
      <trkpt lat="47.87339" lon="-2.77716">
        <ele>136</ele>
        <time>2020-06-08T15:47:20Z</time>
      </trkpt>
      <trkpt lat="47.87321" lon="-2.7775">
        <ele>134</ele>
        <time>2020-06-08T15:47:43Z</time>
      </trkpt>
      <trkpt lat="47.87313" lon="-2.7777">
        <ele>132</ele>
        <time>2020-06-08T15:47:55Z</time>
      </trkpt>
      <trkpt lat="47.87312" lon="-2.77779">
        <ele>132</ele>
        <time>2020-06-08T15:48:00Z</time>
      </trkpt>
      <trkpt lat="47.87305" lon="-2.77778">
        <ele>131</ele>
        <time>2020-06-08T15:48:06Z</time>
      </trkpt>
      <trkpt lat="47.8729" lon="-2.77781">
        <ele>130</ele>
        <time>2020-06-08T15:48:18Z</time>
      </trkpt>
      <trkpt lat="47.87284" lon="-2.77819">
        <ele>128</ele>
        <time>2020-06-08T15:48:39Z</time>
      </trkpt>
      <trkpt lat="47.87274" lon="-2.77861">
        <ele>128</ele>
        <time>2020-06-08T15:49:03Z</time>
      </trkpt>
      <trkpt lat="47.87262" lon="-2.77896">
        <ele>128</ele>
        <time>2020-06-08T15:49:24Z</time>
      </trkpt>
      <trkpt lat="47.87252" lon="-2.77911">
        <ele>129</ele>
        <time>2020-06-08T15:49:35Z</time>
      </trkpt>
      <trkpt lat="47.87245" lon="-2.77948">
        <ele>131</ele>
        <time>2020-06-08T15:49:56Z</time>
      </trkpt>
      <trkpt lat="47.87236" lon="-2.77974">
        <ele>132</ele>
        <time>2020-06-08T15:50:12Z</time>
      </trkpt>
      <trkpt lat="47.87223" lon="-2.78001">
        <ele>134</ele>
        <time>2020-06-08T15:50:30Z</time>
      </trkpt>
      <trkpt lat="47.87216" lon="-2.7801">
        <ele>136</ele>
        <time>2020-06-08T15:50:37Z</time>
      </trkpt>
      <trkpt lat="47.87203" lon="-2.78017">
        <ele>137</ele>
        <time>2020-06-08T15:50:48Z</time>
      </trkpt>
      <trkpt lat="47.87163" lon="-2.78019">
        <ele>139</ele>
        <time>2020-06-08T15:51:20Z</time>
      </trkpt>
      <trkpt lat="47.87131" lon="-2.78034">
        <ele>140</ele>
        <time>2020-06-08T15:51:47Z</time>
      </trkpt>
      <trkpt lat="47.87127" lon="-2.78045">
        <ele>141</ele>
        <time>2020-06-08T15:51:54Z</time>
      </trkpt>
      <trkpt lat="47.87125" lon="-2.78058">
        <ele>142</ele>
        <time>2020-06-08T15:52:01Z</time>
      </trkpt>
      <trkpt lat="47.87126" lon="-2.78076">
        <ele>144</ele>
        <time>2020-06-08T15:52:11Z</time>
      </trkpt>
      <trkpt lat="47.87168" lon="-2.78102">
        <ele>146</ele>
        <time>2020-06-08T15:52:47Z</time>
      </trkpt>
      <trkpt lat="47.8724" lon="-2.78191">
        <ele>152</ele>
        <time>2020-06-08T15:54:02Z</time>
      </trkpt>
      <trkpt lat="47.87243" lon="-2.78199">
        <ele>152</ele>
        <time>2020-06-08T15:54:07Z</time>
      </trkpt>
      <trkpt lat="47.87258" lon="-2.78363">
        <ele>159</ele>
        <time>2020-06-08T15:55:36Z</time>
      </trkpt>
      <trkpt lat="47.87262" lon="-2.78381">
        <ele>160</ele>
        <time>2020-06-08T15:55:46Z</time>
      </trkpt>
      <trkpt lat="47.8728" lon="-2.78427">
        <ele>160</ele>
        <time>2020-06-08T15:56:14Z</time>
      </trkpt>
      <trkpt lat="47.87292" lon="-2.78468">
        <ele>159</ele>
        <time>2020-06-08T15:56:38Z</time>
      </trkpt>
      <trkpt lat="47.87298" lon="-2.78524">
        <ele>156</ele>
        <time>2020-06-08T15:57:09Z</time>
      </trkpt>
      <trkpt lat="47.87297" lon="-2.78578">
        <ele>153</ele>
        <time>2020-06-08T15:57:38Z</time>
      </trkpt>
      <trkpt lat="47.87282" lon="-2.78754">
        <ele>146</ele>
        <time>2020-06-08T15:59:13Z</time>
      </trkpt>
      <trkpt lat="47.87283" lon="-2.78835">
        <ele>141</ele>
        <time>2020-06-08T15:59:57Z</time>
      </trkpt>
      <trkpt lat="47.87281" lon="-2.78886">
        <ele>136</ele>
        <time>2020-06-08T16:00:24Z</time>
      </trkpt>
      <trkpt lat="47.87279" lon="-2.78909">
        <ele>133</ele>
        <time>2020-06-08T16:00:37Z</time>
      </trkpt>
      <trkpt lat="47.87268" lon="-2.7891">
        <ele>134</ele>
        <time>2020-06-08T16:00:45Z</time>
      </trkpt>
      <trkpt lat="47.87257" lon="-2.78915">
        <ele>134</ele>
        <time>2020-06-08T16:00:55Z</time>
      </trkpt>
      <trkpt lat="47.87243" lon="-2.7893">
        <ele>135</ele>
        <time>2020-06-08T16:01:08Z</time>
      </trkpt>
      <trkpt lat="47.87226" lon="-2.78954">
        <ele>136</ele>
        <time>2020-06-08T16:01:27Z</time>
      </trkpt>
      <trkpt lat="47.87188" lon="-2.78996">
        <ele>138</ele>
        <time>2020-06-08T16:02:05Z</time>
      </trkpt>
      <trkpt lat="47.87109" lon="-2.79062">
        <ele>141</ele>
        <time>2020-06-08T16:03:18Z</time>
      </trkpt>
      <trkpt lat="47.87072" lon="-2.7909">
        <ele>141</ele>
        <time>2020-06-08T16:03:51Z</time>
      </trkpt>
      <trkpt lat="47.87011" lon="-2.7912">
        <ele>143</ele>
        <time>2020-06-08T16:04:42Z</time>
      </trkpt>
      <trkpt lat="47.86999" lon="-2.79124">
        <ele>144</ele>
        <time>2020-06-08T16:04:52Z</time>
      </trkpt>
      <trkpt lat="47.86983" lon="-2.79125">
        <ele>145</ele>
        <time>2020-06-08T16:05:05Z</time>
      </trkpt>
      <trkpt lat="47.86958" lon="-2.79193">
        <ele>146</ele>
        <time>2020-06-08T16:05:47Z</time>
      </trkpt>
      <trkpt lat="47.86951" lon="-2.79221">
        <ele>147</ele>
        <time>2020-06-08T16:06:03Z</time>
      </trkpt>
      <trkpt lat="47.86946" lon="-2.79256">
        <ele>147</ele>
        <time>2020-06-08T16:06:22Z</time>
      </trkpt>
      <trkpt lat="47.86947" lon="-2.79287">
        <ele>149</ele>
        <time>2020-06-08T16:06:38Z</time>
      </trkpt>
      <trkpt lat="47.86952" lon="-2.79324">
        <ele>150</ele>
        <time>2020-06-08T16:06:59Z</time>
      </trkpt>
      <trkpt lat="47.86961" lon="-2.79359">
        <ele>150</ele>
        <time>2020-06-08T16:07:19Z</time>
      </trkpt>
      <trkpt lat="47.86988" lon="-2.79561">
        <ele>150</ele>
        <time>2020-06-08T16:09:10Z</time>
      </trkpt>
      <trkpt lat="47.86987" lon="-2.79572">
        <ele>150</ele>
        <time>2020-06-08T16:09:15Z</time>
      </trkpt>
      <trkpt lat="47.86972" lon="-2.79572">
        <ele>153</ele>
        <time>2020-06-08T16:09:27Z</time>
      </trkpt>
      <trkpt lat="47.86985" lon="-2.79624">
        <ele>149</ele>
        <time>2020-06-08T16:09:57Z</time>
      </trkpt>
      <trkpt lat="47.86989" lon="-2.7966">
        <ele>148</ele>
        <time>2020-06-08T16:10:17Z</time>
      </trkpt>
      <trkpt lat="47.86996" lon="-2.79695">
        <ele>148</ele>
        <time>2020-06-08T16:10:37Z</time>
      </trkpt>
      <trkpt lat="47.87014" lon="-2.79761">
        <ele>150</ele>
        <time>2020-06-08T16:11:15Z</time>
      </trkpt>
      <trkpt lat="47.87019" lon="-2.79792">
        <ele>150</ele>
        <time>2020-06-08T16:11:32Z</time>
      </trkpt>
      <trkpt lat="47.87044" lon="-2.79807">
        <ele>150</ele>
        <time>2020-06-08T16:11:53Z</time>
      </trkpt>
      <trkpt lat="47.87049" lon="-2.79814">
        <ele>150</ele>
        <time>2020-06-08T16:11:59Z</time>
      </trkpt>
      <trkpt lat="47.87046" lon="-2.79815">
        <ele>150</ele>
        <time>2020-06-08T16:12:01Z</time>
      </trkpt>
      <trkpt lat="47.87038" lon="-2.79829">
        <ele>150</ele>
        <time>2020-06-08T16:12:11Z</time>
      </trkpt>
      <trkpt lat="47.86999" lon="-2.80021">
        <ele>149</ele>
        <time>2020-06-08T16:13:59Z</time>
      </trkpt>
      <trkpt lat="47.86874" lon="-2.79986">
        <ele>156</ele>
        <time>2020-06-08T16:15:41Z</time>
      </trkpt>
      <trkpt lat="47.86861" lon="-2.7998">
        <ele>157</ele>
        <time>2020-06-08T16:15:52Z</time>
      </trkpt>
      <trkpt lat="47.86651" lon="-2.79778">
        <ele>171</ele>
        <time>2020-06-08T16:19:12Z</time>
      </trkpt>
      <trkpt lat="47.86417" lon="-2.7956">
        <ele>178</ele>
        <time>2020-06-08T16:22:53Z</time>
      </trkpt>
      <trkpt lat="47.86393" lon="-2.79664">
        <ele>176</ele>
        <time>2020-06-08T16:23:52Z</time>
      </trkpt>
      <trkpt lat="47.86382" lon="-2.79686">
        <ele>176</ele>
        <time>2020-06-08T16:24:07Z</time>
      </trkpt>
      <trkpt lat="47.86328" lon="-2.79732">
        <ele>174</ele>
        <time>2020-06-08T16:24:56Z</time>
      </trkpt>
      <trkpt lat="47.86214" lon="-2.79858">
        <ele>169</ele>
        <time>2020-06-08T16:26:50Z</time>
      </trkpt>
      <trkpt lat="47.86161" lon="-2.79912">
        <ele>165</ele>
        <time>2020-06-08T16:27:42Z</time>
      </trkpt>
      <trkpt lat="47.86083" lon="-2.79998">
        <ele>160</ele>
        <time>2020-06-08T16:28:59Z</time>
      </trkpt>
      <trkpt lat="47.86092" lon="-2.80014">
        <ele>161</ele>
        <time>2020-06-08T16:29:10Z</time>
      </trkpt>
      <trkpt lat="47.86118" lon="-2.80127">
        <ele>167</ele>
        <time>2020-06-08T16:30:15Z</time>
      </trkpt>
      <trkpt lat="47.86124" lon="-2.8016">
        <ele>169</ele>
        <time>2020-06-08T16:30:33Z</time>
      </trkpt>
      <trkpt lat="47.86123" lon="-2.80175">
        <ele>169</ele>
        <time>2020-06-08T16:30:41Z</time>
      </trkpt>
      <trkpt lat="47.86117" lon="-2.80184">
        <ele>168</ele>
        <time>2020-06-08T16:30:48Z</time>
      </trkpt>
      <trkpt lat="47.86088" lon="-2.80213">
        <ele>165</ele>
        <time>2020-06-08T16:31:16Z</time>
      </trkpt>
      <trkpt lat="47.86071" lon="-2.80222">
        <ele>164</ele>
        <time>2020-06-08T16:31:30Z</time>
      </trkpt>
      <trkpt lat="47.86034" lon="-2.80233">
        <ele>160</ele>
        <time>2020-06-08T16:32:00Z</time>
      </trkpt>
      <trkpt lat="47.85997" lon="-2.8022">
        <ele>157</ele>
        <time>2020-06-08T16:32:31Z</time>
      </trkpt>
      <trkpt lat="47.8594" lon="-2.80206">
        <ele>150</ele>
        <time>2020-06-08T16:33:17Z</time>
      </trkpt>
      <trkpt lat="47.85943" lon="-2.80214">
        <ele>150</ele>
        <time>2020-06-08T16:33:22Z</time>
      </trkpt>
      <trkpt lat="47.85951" lon="-2.8029">
        <ele>148</ele>
        <time>2020-06-08T16:34:03Z</time>
      </trkpt>
      <trkpt lat="47.85952" lon="-2.80367">
        <ele>142</ele>
        <time>2020-06-08T16:34:45Z</time>
      </trkpt>
      <trkpt lat="47.8595" lon="-2.80372">
        <ele>141</ele>
        <time>2020-06-08T16:34:48Z</time>
      </trkpt>
      <trkpt lat="47.85947" lon="-2.80377">
        <ele>140</ele>
        <time>2020-06-08T16:34:52Z</time>
      </trkpt>
      <trkpt lat="47.85941" lon="-2.80376">
        <ele>139</ele>
        <time>2020-06-08T16:34:56Z</time>
      </trkpt>
      <trkpt lat="47.85909" lon="-2.80358">
        <ele>137</ele>
        <time>2020-06-08T16:35:24Z</time>
      </trkpt>
      <trkpt lat="47.85903" lon="-2.80342">
        <ele>138</ele>
        <time>2020-06-08T16:35:34Z</time>
      </trkpt>
      <trkpt lat="47.859" lon="-2.80319">
        <ele>140</ele>
        <time>2020-06-08T16:35:46Z</time>
      </trkpt>
      <trkpt lat="47.85897" lon="-2.80318">
        <ele>140</ele>
        <time>2020-06-08T16:35:49Z</time>
      </trkpt>
      <trkpt lat="47.85893" lon="-2.80324">
        <ele>139</ele>
        <time>2020-06-08T16:35:53Z</time>
      </trkpt>
      <trkpt lat="47.85892" lon="-2.80334">
        <ele>138</ele>
        <time>2020-06-08T16:35:59Z</time>
      </trkpt>
      <trkpt lat="47.8589" lon="-2.80392">
        <ele>132</ele>
        <time>2020-06-08T16:36:30Z</time>
      </trkpt>
      <trkpt lat="47.85882" lon="-2.80406">
        <ele>130</ele>
        <time>2020-06-08T16:36:40Z</time>
      </trkpt>
      <trkpt lat="47.85891" lon="-2.80411">
        <ele>130</ele>
        <time>2020-06-08T16:36:47Z</time>
      </trkpt>
      <trkpt lat="47.85865" lon="-2.804">
        <ele>129</ele>
        <time>2020-06-08T16:37:09Z</time>
      </trkpt>
      <trkpt lat="47.85835" lon="-2.80394">
        <ele>127</ele>
        <time>2020-06-08T16:37:33Z</time>
      </trkpt>
      <trkpt lat="47.85852" lon="-2.80453">
        <ele>122</ele>
        <time>2020-06-08T16:38:08Z</time>
      </trkpt>
      <trkpt lat="47.85852" lon="-2.805">
        <ele>116</ele>
        <time>2020-06-08T16:38:33Z</time>
      </trkpt>
      <trkpt lat="47.85853" lon="-2.80513">
        <ele>116</ele>
        <time>2020-06-08T16:38:40Z</time>
      </trkpt>
      <trkpt lat="47.85857" lon="-2.80524">
        <ele>115</ele>
        <time>2020-06-08T16:38:47Z</time>
      </trkpt>
      <trkpt lat="47.85856" lon="-2.80551">
        <ele>113</ele>
        <time>2020-06-08T16:39:01Z</time>
      </trkpt>
      <trkpt lat="47.85845" lon="-2.80591">
        <ele>109</ele>
        <time>2020-06-08T16:39:24Z</time>
      </trkpt>
      <trkpt lat="47.85846" lon="-2.80601">
        <ele>108</ele>
        <time>2020-06-08T16:39:30Z</time>
      </trkpt>
      <trkpt lat="47.85889" lon="-2.80627">
        <ele>108</ele>
        <time>2020-06-08T16:40:07Z</time>
      </trkpt>
      <trkpt lat="47.85874" lon="-2.80689">
        <ele>100</ele>
        <time>2020-06-08T16:40:42Z</time>
      </trkpt>
      <trkpt lat="47.85832" lon="-2.80677">
        <ele>100</ele>
        <time>2020-06-08T16:41:17Z</time>
      </trkpt>
      <trkpt lat="47.8579" lon="-2.80657">
        <ele>100</ele>
        <time>2020-06-08T16:41:52Z</time>
      </trkpt>
      <trkpt lat="47.85777" lon="-2.80654">
        <ele>100</ele>
        <time>2020-06-08T16:42:03Z</time>
      </trkpt>
      <trkpt lat="47.85718" lon="-2.80654">
        <ele>100</ele>
        <time>2020-06-08T16:42:50Z</time>
      </trkpt>
      <trkpt lat="47.85705" lon="-2.80652">
        <ele>101</ele>
        <time>2020-06-08T16:43:00Z</time>
      </trkpt>
      <trkpt lat="47.85632" lon="-2.80625">
        <ele>104</ele>
        <time>2020-06-08T16:44:00Z</time>
      </trkpt>
      <trkpt lat="47.85611" lon="-2.80614">
        <ele>104</ele>
        <time>2020-06-08T16:44:18Z</time>
      </trkpt>
      <trkpt lat="47.85562" lon="-2.80566">
        <ele>106</ele>
        <time>2020-06-08T16:45:05Z</time>
      </trkpt>
      <trkpt lat="47.8552" lon="-2.80542">
        <ele>105</ele>
        <time>2020-06-08T16:45:41Z</time>
      </trkpt>
      <trkpt lat="47.85451" lon="-2.80487">
        <ele>108</ele>
        <time>2020-06-08T16:46:44Z</time>
      </trkpt>
      <trkpt lat="47.85425" lon="-2.80488">
        <ele>107</ele>
        <time>2020-06-08T16:47:05Z</time>
      </trkpt>
      <trkpt lat="47.85415" lon="-2.80485">
        <ele>107</ele>
        <time>2020-06-08T16:47:13Z</time>
      </trkpt>
      <trkpt lat="47.85406" lon="-2.80478">
        <ele>106</ele>
        <time>2020-06-08T16:47:21Z</time>
      </trkpt>
      <trkpt lat="47.85373" lon="-2.80814">
        <ele>93</ele>
        <time>2020-06-08T16:50:24Z</time>
      </trkpt>
      <trkpt lat="47.85447" lon="-2.80821">
        <ele>98</ele>
        <time>2020-06-08T16:51:23Z</time>
      </trkpt>
      <trkpt lat="47.85464" lon="-2.80825">
        <ele>99</ele>
        <time>2020-06-08T16:51:37Z</time>
      </trkpt>
      <trkpt lat="47.8549" lon="-2.80838">
        <ele>101</ele>
        <time>2020-06-08T16:51:59Z</time>
      </trkpt>
      <trkpt lat="47.85542" lon="-2.80871">
        <ele>102</ele>
        <time>2020-06-08T16:52:44Z</time>
      </trkpt>
      <trkpt lat="47.85574" lon="-2.80906">
        <ele>106</ele>
        <time>2020-06-08T16:53:16Z</time>
      </trkpt>
      <trkpt lat="47.85606" lon="-2.80933">
        <ele>107</ele>
        <time>2020-06-08T16:53:45Z</time>
      </trkpt>
      <trkpt lat="47.85639" lon="-2.80967">
        <ele>107</ele>
        <time>2020-06-08T16:54:17Z</time>
      </trkpt>
      <trkpt lat="47.85664" lon="-2.80987">
        <ele>107</ele>
        <time>2020-06-08T16:54:40Z</time>
      </trkpt>
      <trkpt lat="47.85722" lon="-2.81016">
        <ele>105</ele>
        <time>2020-06-08T16:55:29Z</time>
      </trkpt>
      <trkpt lat="47.8575" lon="-2.81025">
        <ele>105</ele>
        <time>2020-06-08T16:55:52Z</time>
      </trkpt>
      <trkpt lat="47.85872" lon="-2.81051">
        <ele>116</ele>
        <time>2020-06-08T16:57:31Z</time>
      </trkpt>
      <trkpt lat="47.85979" lon="-2.8107">
        <ele>120</ele>
        <time>2020-06-08T16:58:57Z</time>
      </trkpt>
      <trkpt lat="47.86014" lon="-2.81073">
        <ele>120</ele>
        <time>2020-06-08T16:59:25Z</time>
      </trkpt>
      <trkpt lat="47.86192" lon="-2.81108">
        <ele>124</ele>
        <time>2020-06-08T17:01:49Z</time>
      </trkpt>
      <trkpt lat="47.86259" lon="-2.81473">
        <ele>171</ele>
        <time>2020-06-08T17:05:12Z</time>
      </trkpt>
      <trkpt lat="47.8603" lon="-2.81416">
        <ele>165</ele>
        <time>2020-06-08T17:08:18Z</time>
      </trkpt>
      <trkpt lat="47.85986" lon="-2.81408">
        <ele>161</ele>
        <time>2020-06-08T17:08:53Z</time>
      </trkpt>
      <trkpt lat="47.85951" lon="-2.81412">
        <ele>157</ele>
        <time>2020-06-08T17:09:21Z</time>
      </trkpt>
      <trkpt lat="47.85936" lon="-2.81418">
        <ele>156</ele>
        <time>2020-06-08T17:09:34Z</time>
      </trkpt>
      <trkpt lat="47.85909" lon="-2.81441">
        <ele>154</ele>
        <time>2020-06-08T17:09:59Z</time>
      </trkpt>
      <trkpt lat="47.85895" lon="-2.81458">
        <ele>154</ele>
        <time>2020-06-08T17:10:13Z</time>
      </trkpt>
      <trkpt lat="47.85878" lon="-2.81482">
        <ele>154</ele>
        <time>2020-06-08T17:10:32Z</time>
      </trkpt>
      <trkpt lat="47.8586" lon="-2.81517">
        <ele>154</ele>
        <time>2020-06-08T17:10:56Z</time>
      </trkpt>
      <trkpt lat="47.85849" lon="-2.8155">
        <ele>155</ele>
        <time>2020-06-08T17:11:15Z</time>
      </trkpt>
      <trkpt lat="47.85841" lon="-2.81582">
        <ele>155</ele>
        <time>2020-06-08T17:11:34Z</time>
      </trkpt>
      <trkpt lat="47.85838" lon="-2.81648">
        <ele>156</ele>
        <time>2020-06-08T17:12:09Z</time>
      </trkpt>
      <trkpt lat="47.85847" lon="-2.8172">
        <ele>156</ele>
        <time>2020-06-08T17:12:49Z</time>
      </trkpt>
      <trkpt lat="47.85865" lon="-2.81788">
        <ele>155</ele>
        <time>2020-06-08T17:13:28Z</time>
      </trkpt>
      <trkpt lat="47.85876" lon="-2.81815">
        <ele>155</ele>
        <time>2020-06-08T17:13:45Z</time>
      </trkpt>
      <trkpt lat="47.85892" lon="-2.81845">
        <ele>155</ele>
        <time>2020-06-08T17:14:05Z</time>
      </trkpt>
      <trkpt lat="47.85941" lon="-2.81927">
        <ele>152</ele>
        <time>2020-06-08T17:15:04Z</time>
      </trkpt>
      <trkpt lat="47.8595" lon="-2.81947">
        <ele>149</ele>
        <time>2020-06-08T17:15:17Z</time>
      </trkpt>
      <trkpt lat="47.8596" lon="-2.81987">
        <ele>144</ele>
        <time>2020-06-08T17:15:40Z</time>
      </trkpt>
      <trkpt lat="47.85959" lon="-2.82024">
        <ele>140</ele>
        <time>2020-06-08T17:16:00Z</time>
      </trkpt>
      <trkpt lat="47.85954" lon="-2.82058">
        <ele>136</ele>
        <time>2020-06-08T17:16:19Z</time>
      </trkpt>
      <trkpt lat="47.8595" lon="-2.82068">
        <ele>135</ele>
        <time>2020-06-08T17:16:25Z</time>
      </trkpt>
      <trkpt lat="47.85873" lon="-2.8208">
        <ele>131</ele>
        <time>2020-06-08T17:17:27Z</time>
      </trkpt>
      <trkpt lat="47.85857" lon="-2.82087">
        <ele>130</ele>
        <time>2020-06-08T17:17:41Z</time>
      </trkpt>
      <trkpt lat="47.8581" lon="-2.82128">
        <ele>124</ele>
        <time>2020-06-08T17:18:24Z</time>
      </trkpt>
      <trkpt lat="47.85813" lon="-2.82132">
        <ele>124</ele>
        <time>2020-06-08T17:18:27Z</time>
      </trkpt>
      <trkpt lat="47.8581" lon="-2.82199">
        <ele>120</ele>
        <time>2020-06-08T17:19:03Z</time>
      </trkpt>
      <trkpt lat="47.85813" lon="-2.8222">
        <ele>119</ele>
        <time>2020-06-08T17:19:15Z</time>
      </trkpt>
      <trkpt lat="47.85804" lon="-2.82237">
        <ele>117</ele>
        <time>2020-06-08T17:19:27Z</time>
      </trkpt>
      <trkpt lat="47.85789" lon="-2.82239">
        <ele>116</ele>
        <time>2020-06-08T17:19:39Z</time>
      </trkpt>
      <trkpt lat="47.85778" lon="-2.82231">
        <ele>116</ele>
        <time>2020-06-08T17:19:48Z</time>
      </trkpt>
      <trkpt lat="47.85766" lon="-2.8222">
        <ele>116</ele>
        <time>2020-06-08T17:20:00Z</time>
      </trkpt>
      <trkpt lat="47.85739" lon="-2.82184">
        <ele>116</ele>
        <time>2020-06-08T17:20:29Z</time>
      </trkpt>
      <trkpt lat="47.8573" lon="-2.82176">
        <ele>116</ele>
        <time>2020-06-08T17:20:37Z</time>
      </trkpt>
      <trkpt lat="47.85717" lon="-2.82173">
        <ele>115</ele>
        <time>2020-06-08T17:20:48Z</time>
      </trkpt>
      <trkpt lat="47.85711" lon="-2.82176">
        <ele>114</ele>
        <time>2020-06-08T17:20:53Z</time>
      </trkpt>
      <trkpt lat="47.85702" lon="-2.82184">
        <ele>114</ele>
        <time>2020-06-08T17:21:01Z</time>
      </trkpt>
      <trkpt lat="47.85693" lon="-2.82197">
        <ele>113</ele>
        <time>2020-06-08T17:21:11Z</time>
      </trkpt>
      <trkpt lat="47.85769" lon="-2.82256">
        <ele>115</ele>
        <time>2020-06-08T17:22:20Z</time>
      </trkpt>
      <trkpt lat="47.85867" lon="-2.8234">
        <ele>117</ele>
        <time>2020-06-08T17:23:50Z</time>
      </trkpt>
      <trkpt lat="47.85892" lon="-2.82369">
        <ele>118</ele>
        <time>2020-06-08T17:24:16Z</time>
      </trkpt>
      <trkpt lat="47.85899" lon="-2.82382">
        <ele>118</ele>
        <time>2020-06-08T17:24:25Z</time>
      </trkpt>
      <trkpt lat="47.8591" lon="-2.82385">
        <ele>118</ele>
        <time>2020-06-08T17:24:34Z</time>
      </trkpt>
      <trkpt lat="47.85934" lon="-2.82399">
        <ele>118</ele>
        <time>2020-06-08T17:24:54Z</time>
      </trkpt>
      <trkpt lat="47.8595" lon="-2.82423">
        <ele>119</ele>
        <time>2020-06-08T17:25:12Z</time>
      </trkpt>
      <trkpt lat="47.85961" lon="-2.8245">
        <ele>119</ele>
        <time>2020-06-08T17:25:29Z</time>
      </trkpt>
      <trkpt lat="47.85966" lon="-2.82473">
        <ele>119</ele>
        <time>2020-06-08T17:25:42Z</time>
      </trkpt>
      <trkpt lat="47.85968" lon="-2.8251">
        <ele>119</ele>
        <time>2020-06-08T17:26:02Z</time>
      </trkpt>
      <trkpt lat="47.85959" lon="-2.82592">
        <ele>123</ele>
        <time>2020-06-08T17:26:47Z</time>
      </trkpt>
      <trkpt lat="47.85946" lon="-2.8267">
        <ele>130</ele>
        <time>2020-06-08T17:27:30Z</time>
      </trkpt>
      <trkpt lat="47.8594" lon="-2.82691">
        <ele>132</ele>
        <time>2020-06-08T17:27:42Z</time>
      </trkpt>
      <trkpt lat="47.85981" lon="-2.82716">
        <ele>130</ele>
        <time>2020-06-08T17:28:18Z</time>
      </trkpt>
      <trkpt lat="47.86009" lon="-2.8273">
        <ele>130</ele>
        <time>2020-06-08T17:28:41Z</time>
      </trkpt>
      <trkpt lat="47.86044" lon="-2.8274">
        <ele>132</ele>
        <time>2020-06-08T17:29:10Z</time>
      </trkpt>
      <trkpt lat="47.86089" lon="-2.82742">
        <ele>134</ele>
        <time>2020-06-08T17:29:46Z</time>
      </trkpt>
      <trkpt lat="47.8625" lon="-2.82727">
        <ele>137</ele>
        <time>2020-06-08T17:31:55Z</time>
      </trkpt>
      <trkpt lat="47.86234" lon="-2.83046">
        <ele>157</ele>
        <time>2020-06-08T17:34:47Z</time>
      </trkpt>
      <trkpt lat="47.86217" lon="-2.83207">
        <ele>155</ele>
        <time>2020-06-08T17:36:15Z</time>
      </trkpt>
      <trkpt lat="47.86205" lon="-2.83616">
        <ele>161</ele>
        <time>2020-06-08T17:39:55Z</time>
      </trkpt>
      <trkpt lat="47.86189" lon="-2.83627">
        <ele>162</ele>
        <time>2020-06-08T17:40:09Z</time>
      </trkpt>
      <trkpt lat="47.86142" lon="-2.83671">
        <ele>165</ele>
        <time>2020-06-08T17:40:53Z</time>
      </trkpt>
      <trkpt lat="47.86122" lon="-2.83681">
        <ele>165</ele>
        <time>2020-06-08T17:41:10Z</time>
      </trkpt>
      <trkpt lat="47.85964" lon="-2.83742">
        <ele>161</ele>
        <time>2020-06-08T17:43:21Z</time>
      </trkpt>
      <trkpt lat="47.85956" lon="-2.83769">
        <ele>160</ele>
        <time>2020-06-08T17:43:36Z</time>
      </trkpt>
      <trkpt lat="47.85906" lon="-2.83864">
        <ele>149</ele>
        <time>2020-06-08T17:44:41Z</time>
      </trkpt>
      <trkpt lat="47.85896" lon="-2.8389">
        <ele>146</ele>
        <time>2020-06-08T17:44:57Z</time>
      </trkpt>
      <trkpt lat="47.85886" lon="-2.83919">
        <ele>142</ele>
        <time>2020-06-08T17:45:15Z</time>
      </trkpt>
      <trkpt lat="47.85868" lon="-2.84014">
        <ele>132</ele>
        <time>2020-06-08T17:46:08Z</time>
      </trkpt>
      <trkpt lat="47.85868" lon="-2.84017">
        <ele>132</ele>
        <time>2020-06-08T17:46:10Z</time>
      </trkpt>
      <trkpt lat="47.85892" lon="-2.84046">
        <ele>133</ele>
        <time>2020-06-08T17:46:34Z</time>
      </trkpt>
      <trkpt lat="47.85897" lon="-2.84059">
        <ele>133</ele>
        <time>2020-06-08T17:46:42Z</time>
      </trkpt>
      <trkpt lat="47.85904" lon="-2.84081">
        <ele>132</ele>
        <time>2020-06-08T17:46:55Z</time>
      </trkpt>
      <trkpt lat="47.85915" lon="-2.84145">
        <ele>130</ele>
        <time>2020-06-08T17:47:31Z</time>
      </trkpt>
      <trkpt lat="47.85918" lon="-2.84173">
        <ele>129</ele>
        <time>2020-06-08T17:47:46Z</time>
      </trkpt>
      <trkpt lat="47.85917" lon="-2.84216">
        <ele>130</ele>
        <time>2020-06-08T17:48:09Z</time>
      </trkpt>
      <trkpt lat="47.85911" lon="-2.84251">
        <ele>130</ele>
        <time>2020-06-08T17:48:29Z</time>
      </trkpt>
      <trkpt lat="47.85904" lon="-2.84275">
        <ele>130</ele>
        <time>2020-06-08T17:48:43Z</time>
      </trkpt>
      <trkpt lat="47.85893" lon="-2.84301">
        <ele>129</ele>
        <time>2020-06-08T17:48:59Z</time>
      </trkpt>
      <trkpt lat="47.8587" lon="-2.8434">
        <ele>129</ele>
        <time>2020-06-08T17:49:27Z</time>
      </trkpt>
      <trkpt lat="47.8568" lon="-2.84636">
        <ele>127</ele>
        <time>2020-06-08T17:53:07Z</time>
      </trkpt>
      <trkpt lat="47.85632" lon="-2.8472">
        <ele>123</ele>
        <time>2020-06-08T17:54:07Z</time>
      </trkpt>
      <trkpt lat="47.85615" lon="-2.84767">
        <ele>121</ele>
        <time>2020-06-08T17:54:35Z</time>
      </trkpt>
      <trkpt lat="47.85597" lon="-2.84791">
        <ele>119</ele>
        <time>2020-06-08T17:54:55Z</time>
      </trkpt>
      <trkpt lat="47.85574" lon="-2.84832">
        <ele>116</ele>
        <time>2020-06-08T17:55:23Z</time>
      </trkpt>
      <trkpt lat="47.85559" lon="-2.84835">
        <ele>113</ele>
        <time>2020-06-08T17:55:35Z</time>
      </trkpt>
      <trkpt lat="47.85553" lon="-2.84844">
        <ele>112</ele>
        <time>2020-06-08T17:55:42Z</time>
      </trkpt>
      <trkpt lat="47.8554" lon="-2.84873">
        <ele>110</ele>
        <time>2020-06-08T17:56:01Z</time>
      </trkpt>
      <trkpt lat="47.85525" lon="-2.84918">
        <ele>107</ele>
        <time>2020-06-08T17:56:28Z</time>
      </trkpt>
      <trkpt lat="47.85513" lon="-2.84938">
        <ele>104</ele>
        <time>2020-06-08T17:56:42Z</time>
      </trkpt>
      <trkpt lat="47.85502" lon="-2.84947">
        <ele>102</ele>
        <time>2020-06-08T17:56:52Z</time>
      </trkpt>
      <trkpt lat="47.85489" lon="-2.84953">
        <ele>100</ele>
        <time>2020-06-08T17:57:03Z</time>
      </trkpt>
      <trkpt lat="47.85475" lon="-2.84956">
        <ele>98</ele>
        <time>2020-06-08T17:57:15Z</time>
      </trkpt>
      <trkpt lat="47.85299" lon="-2.84977">
        <ele>76</ele>
        <time>2020-06-08T17:59:36Z</time>
      </trkpt>
      <trkpt lat="47.85252" lon="-2.84981">
        <ele>72</ele>
        <time>2020-06-08T18:00:14Z</time>
      </trkpt>
      <trkpt lat="47.85228" lon="-2.8498">
        <ele>71</ele>
        <time>2020-06-08T18:00:33Z</time>
      </trkpt>
      <trkpt lat="47.85194" lon="-2.84973">
        <ele>71</ele>
        <time>2020-06-08T18:01:00Z</time>
      </trkpt>
      <trkpt lat="47.85021" lon="-2.84899">
        <ele>89</ele>
        <time>2020-06-08T18:03:25Z</time>
      </trkpt>
      <trkpt lat="47.84952" lon="-2.84873">
        <ele>93</ele>
        <time>2020-06-08T18:04:22Z</time>
      </trkpt>
      <trkpt lat="47.84953" lon="-2.84868">
        <ele>93</ele>
        <time>2020-06-08T18:04:24Z</time>
      </trkpt>
      <trkpt lat="47.84949" lon="-2.84938">
        <ele>94</ele>
        <time>2020-06-08T18:05:02Z</time>
      </trkpt>
      <trkpt lat="47.8495" lon="-2.85069">
        <ele>97</ele>
        <time>2020-06-08T18:06:12Z</time>
      </trkpt>
      <trkpt lat="47.84935" lon="-2.85363">
        <ele>92</ele>
        <time>2020-06-08T18:08:51Z</time>
      </trkpt>
      <trkpt lat="47.84939" lon="-2.85452">
        <ele>88</ele>
        <time>2020-06-08T18:09:39Z</time>
      </trkpt>
      <trkpt lat="47.8494" lon="-2.85442">
        <ele>88</ele>
        <time>2020-06-08T18:09:44Z</time>
      </trkpt>
      <trkpt lat="47.84949" lon="-2.8546">
        <ele>88</ele>
        <time>2020-06-08T18:09:56Z</time>
      </trkpt>
      <trkpt lat="47.84959" lon="-2.85473">
        <ele>87</ele>
        <time>2020-06-08T18:10:07Z</time>
      </trkpt>
      <trkpt lat="47.85011" lon="-2.85495">
        <ele>85</ele>
        <time>2020-06-08T18:10:50Z</time>
      </trkpt>
      <trkpt lat="47.85027" lon="-2.85504">
        <ele>85</ele>
        <time>2020-06-08T18:11:04Z</time>
      </trkpt>
      <trkpt lat="47.85052" lon="-2.8553">
        <ele>85</ele>
        <time>2020-06-08T18:11:28Z</time>
      </trkpt>
      <trkpt lat="47.85069" lon="-2.85563">
        <ele>85</ele>
        <time>2020-06-08T18:11:51Z</time>
      </trkpt>
      <trkpt lat="47.85074" lon="-2.85582">
        <ele>85</ele>
        <time>2020-06-08T18:12:02Z</time>
      </trkpt>
      <trkpt lat="47.85078" lon="-2.85604">
        <ele>85</ele>
        <time>2020-06-08T18:12:14Z</time>
      </trkpt>
      <trkpt lat="47.85078" lon="-2.85629">
        <ele>85</ele>
        <time>2020-06-08T18:12:27Z</time>
      </trkpt>
      <trkpt lat="47.85074" lon="-2.85673">
        <ele>84</ele>
        <time>2020-06-08T18:12:51Z</time>
      </trkpt>
      <trkpt lat="47.85027" lon="-2.85697">
        <ele>88</ele>
        <time>2020-06-08T18:13:31Z</time>
      </trkpt>
      <trkpt lat="47.84939" lon="-2.86429">
        <ele>89</ele>
        <time>2020-06-08T18:20:11Z</time>
      </trkpt>
      <trkpt lat="47.84883" lon="-2.86444">
        <ele>82</ele>
        <time>2020-06-08T18:20:56Z</time>
      </trkpt>
      <trkpt lat="47.84855" lon="-2.86634">
        <ele>75</ele>
        <time>2020-06-08T18:22:41Z</time>
      </trkpt>
      <trkpt lat="47.84853" lon="-2.86635">
        <ele>75</ele>
        <time>2020-06-08T18:22:42Z</time>
      </trkpt>
      <trkpt lat="47.84833" lon="-2.86579">
        <ele>74</ele>
        <time>2020-06-08T18:23:16Z</time>
      </trkpt>
      <trkpt lat="47.84814" lon="-2.86536">
        <ele>74</ele>
        <time>2020-06-08T18:23:44Z</time>
      </trkpt>
      <trkpt lat="47.84732" lon="-2.86687">
        <ele>89</ele>
        <time>2020-06-08T18:25:28Z</time>
      </trkpt>
      <trkpt lat="47.84764" lon="-2.86919">
        <ele>93</ele>
        <time>2020-06-08T18:27:36Z</time>
      </trkpt>
      <trkpt lat="47.8475" lon="-2.87327">
        <ele>87</ele>
        <time>2020-06-08T18:31:15Z</time>
      </trkpt>
      <trkpt lat="47.8475" lon="-2.87322">
        <ele>87</ele>
        <time>2020-06-08T18:31:18Z</time>
      </trkpt>
      <trkpt lat="47.84556" lon="-2.87286">
        <ele>90</ele>
        <time>2020-06-08T18:33:54Z</time>
      </trkpt>
      <trkpt lat="47.84552" lon="-2.87341">
        <ele>89</ele>
        <time>2020-06-08T18:34:24Z</time>
      </trkpt>
      <trkpt lat="47.84568" lon="-2.87392">
        <ele>88</ele>
        <time>2020-06-08T18:34:54Z</time>
      </trkpt>
      <trkpt lat="47.84573" lon="-2.87422">
        <ele>87</ele>
        <time>2020-06-08T18:35:11Z</time>
      </trkpt>
      <trkpt lat="47.84572" lon="-2.87442">
        <ele>86</ele>
        <time>2020-06-08T18:35:22Z</time>
      </trkpt>
      <trkpt lat="47.84528" lon="-2.87912">
        <ele>71</ele>
        <time>2020-06-08T18:39:37Z</time>
      </trkpt>
      <trkpt lat="47.845" lon="-2.88251">
        <ele>68</ele>
        <time>2020-06-08T18:42:40Z</time>
      </trkpt>
      <trkpt lat="47.84478" lon="-2.88247">
        <ele>69</ele>
        <time>2020-06-08T18:42:58Z</time>
      </trkpt>
      <trkpt lat="47.84483" lon="-2.88305">
        <ele>71</ele>
        <time>2020-06-08T18:43:30Z</time>
      </trkpt>
      <trkpt lat="47.84483" lon="-2.88353">
        <ele>74</ele>
        <time>2020-06-08T18:43:55Z</time>
      </trkpt>
      <trkpt lat="47.84459" lon="-2.8857">
        <ele>85</ele>
        <time>2020-06-08T18:45:53Z</time>
      </trkpt>
      <trkpt lat="47.84448" lon="-2.88778">
        <ele>91</ele>
        <time>2020-06-08T18:47:46Z</time>
      </trkpt>
      <trkpt lat="47.84397" lon="-2.88776">
        <ele>92</ele>
        <time>2020-06-08T18:48:26Z</time>
      </trkpt>
      <trkpt lat="47.84318" lon="-2.8878">
        <ele>92</ele>
        <time>2020-06-08T18:49:30Z</time>
      </trkpt>
      <trkpt lat="47.84276" lon="-2.88787">
        <ele>92</ele>
        <time>2020-06-08T18:50:04Z</time>
      </trkpt>
      <trkpt lat="47.84194" lon="-2.88811">
        <ele>93</ele>
        <time>2020-06-08T18:51:10Z</time>
      </trkpt>
      <trkpt lat="47.84121" lon="-2.88836">
        <ele>95</ele>
        <time>2020-06-08T18:52:10Z</time>
      </trkpt>
      <trkpt lat="47.83949" lon="-2.89206">
        <ele>113</ele>
        <time>2020-06-08T18:56:12Z</time>
      </trkpt>
      <trkpt lat="47.8395" lon="-2.89213">
        <ele>113</ele>
        <time>2020-06-08T18:56:16Z</time>
      </trkpt>
      <trkpt lat="47.83947" lon="-2.89214">
        <ele>113</ele>
        <time>2020-06-08T18:56:19Z</time>
      </trkpt>
      <trkpt lat="47.83942" lon="-2.89222">
        <ele>113</ele>
        <time>2020-06-08T18:56:25Z</time>
      </trkpt>
      <trkpt lat="47.83865" lon="-2.89466">
        <ele>112</ele>
        <time>2020-06-08T18:58:49Z</time>
      </trkpt>
      <trkpt lat="47.83849" lon="-2.89543">
        <ele>111</ele>
        <time>2020-06-08T18:59:33Z</time>
      </trkpt>
      <trkpt lat="47.83832" lon="-2.89656">
        <ele>115</ele>
        <time>2020-06-08T19:00:35Z</time>
      </trkpt>
      <trkpt lat="47.838" lon="-2.89817">
        <ele>128</ele>
        <time>2020-06-08T19:02:05Z</time>
      </trkpt>
      <trkpt lat="47.83771" lon="-2.90005">
        <ele>149</ele>
        <time>2020-06-08T19:03:49Z</time>
      </trkpt>
      <trkpt lat="47.83744" lon="-2.90125">
        <ele>154</ele>
        <time>2020-06-08T19:04:57Z</time>
      </trkpt>
      <trkpt lat="47.83733" lon="-2.90202">
        <ele>153</ele>
        <time>2020-06-08T19:05:39Z</time>
      </trkpt>
      <trkpt lat="47.83728" lon="-2.90276">
        <ele>151</ele>
        <time>2020-06-08T19:06:19Z</time>
      </trkpt>
      <trkpt lat="47.83732" lon="-2.90319">
        <ele>149</ele>
        <time>2020-06-08T19:06:43Z</time>
      </trkpt>
      <trkpt lat="47.83739" lon="-2.90343">
        <ele>147</ele>
        <time>2020-06-08T19:06:57Z</time>
      </trkpt>
      <trkpt lat="47.83759" lon="-2.90382">
        <ele>143</ele>
        <time>2020-06-08T19:07:23Z</time>
      </trkpt>
      <trkpt lat="47.83774" lon="-2.90404">
        <ele>141</ele>
        <time>2020-06-08T19:07:40Z</time>
      </trkpt>
      <trkpt lat="47.83797" lon="-2.90427">
        <ele>139</ele>
        <time>2020-06-08T19:08:02Z</time>
      </trkpt>
      <trkpt lat="47.83871" lon="-2.90451">
        <ele>134</ele>
        <time>2020-06-08T19:09:03Z</time>
      </trkpt>
      <trkpt lat="47.83935" lon="-2.90463">
        <ele>130</ele>
        <time>2020-06-08T19:09:54Z</time>
      </trkpt>
      <trkpt lat="47.83903" lon="-2.907">
        <ele>120</ele>
        <time>2020-06-08T19:12:04Z</time>
      </trkpt>
      <trkpt lat="47.8369" lon="-2.90588">
        <ele>128</ele>
        <time>2020-06-08T19:15:05Z</time>
      </trkpt>
      <trkpt lat="47.83577" lon="-2.90361">
        <ele>141</ele>
        <time>2020-06-08T19:17:37Z</time>
      </trkpt>
      <trkpt lat="47.83603" lon="-2.90249">
        <ele>149</ele>
        <time>2020-06-08T19:18:41Z</time>
      </trkpt>
      <trkpt lat="47.83537" lon="-2.90189">
        <ele>147</ele>
        <time>2020-06-08T19:19:43Z</time>
      </trkpt>
      <trkpt lat="47.83533" lon="-2.90189">
        <ele>146</ele>
        <time>2020-06-08T19:19:46Z</time>
      </trkpt>
      <trkpt lat="47.83533" lon="-2.90196">
        <ele>146</ele>
        <time>2020-06-08T19:19:50Z</time>
      </trkpt>
      <trkpt lat="47.83493" lon="-2.90205">
        <ele>144</ele>
        <time>2020-06-08T19:20:22Z</time>
      </trkpt>
      <trkpt lat="47.83456" lon="-2.90281">
        <ele>140</ele>
        <time>2020-06-08T19:21:12Z</time>
      </trkpt>
      <trkpt lat="47.83441" lon="-2.90323">
        <ele>138</ele>
        <time>2020-06-08T19:21:38Z</time>
      </trkpt>
      <trkpt lat="47.83436" lon="-2.90319">
        <ele>138</ele>
        <time>2020-06-08T19:21:42Z</time>
      </trkpt>
      <trkpt lat="47.83427" lon="-2.90317">
        <ele>138</ele>
        <time>2020-06-08T19:21:50Z</time>
      </trkpt>
      <trkpt lat="47.83164" lon="-2.90264">
        <ele>135</ele>
        <time>2020-06-08T19:25:22Z</time>
      </trkpt>
      <trkpt lat="47.83143" lon="-2.90587">
        <ele>136</ele>
        <time>2020-06-08T19:28:17Z</time>
      </trkpt>
      <trkpt lat="47.83122" lon="-2.90574">
        <ele>136</ele>
        <time>2020-06-08T19:28:35Z</time>
      </trkpt>
      <trkpt lat="47.83085" lon="-2.90546">
        <ele>137</ele>
        <time>2020-06-08T19:29:08Z</time>
      </trkpt>
      <trkpt lat="47.83004" lon="-2.90476">
        <ele>139</ele>
        <time>2020-06-08T19:30:23Z</time>
      </trkpt>
      <trkpt lat="47.82958" lon="-2.90431">
        <ele>141</ele>
        <time>2020-06-08T19:31:07Z</time>
      </trkpt>
      <trkpt lat="47.82939" lon="-2.90406">
        <ele>142</ele>
        <time>2020-06-08T19:31:27Z</time>
      </trkpt>
      <trkpt lat="47.82933" lon="-2.90394">
        <ele>143</ele>
        <time>2020-06-08T19:31:36Z</time>
      </trkpt>
      <trkpt lat="47.829" lon="-2.90397">
        <ele>142</ele>
        <time>2020-06-08T19:32:02Z</time>
      </trkpt>
      <trkpt lat="47.82861" lon="-2.90466">
        <ele>139</ele>
        <time>2020-06-08T19:32:50Z</time>
      </trkpt>
      <trkpt lat="47.82873" lon="-2.90584">
        <ele>139</ele>
        <time>2020-06-08T19:33:55Z</time>
      </trkpt>
      <trkpt lat="47.82772" lon="-2.90578">
        <ele>145</ele>
        <time>2020-06-08T19:35:16Z</time>
      </trkpt>
      <trkpt lat="47.82746" lon="-2.91017">
        <ele>149</ele>
        <time>2020-06-08T19:39:12Z</time>
      </trkpt>
      <trkpt lat="47.827" lon="-2.91045">
        <ele>152</ele>
        <time>2020-06-08T19:39:52Z</time>
      </trkpt>
      <trkpt lat="47.82605" lon="-2.91284">
        <ele>147</ele>
        <time>2020-06-08T19:42:22Z</time>
      </trkpt>
      <trkpt lat="47.8258" lon="-2.91423">
        <ele>137</ele>
        <time>2020-06-08T19:43:39Z</time>
      </trkpt>
      <trkpt lat="47.82524" lon="-2.91397">
        <ele>138</ele>
        <time>2020-06-08T19:44:26Z</time>
      </trkpt>
      <trkpt lat="47.82494" lon="-2.91455">
        <ele>137</ele>
        <time>2020-06-08T19:45:05Z</time>
      </trkpt>
      <trkpt lat="47.82426" lon="-2.9143">
        <ele>138</ele>
        <time>2020-06-08T19:46:01Z</time>
      </trkpt>
      <trkpt lat="47.82393" lon="-2.91625">
        <ele>137</ele>
        <time>2020-06-08T19:47:49Z</time>
      </trkpt>
      <trkpt lat="47.82318" lon="-2.91659">
        <ele>137</ele>
        <time>2020-06-08T19:48:52Z</time>
      </trkpt>
      <trkpt lat="47.8216" lon="-2.91683">
        <ele>141</ele>
        <time>2020-06-08T19:50:59Z</time>
      </trkpt>
      <trkpt lat="47.82164" lon="-2.91888">
        <ele>143</ele>
        <time>2020-06-08T19:52:50Z</time>
      </trkpt>
      <trkpt lat="47.82477" lon="-2.91863">
        <ele>137</ele>
        <time>2020-06-08T19:57:01Z</time>
      </trkpt>
      <trkpt lat="47.825" lon="-2.91865">
        <ele>138</ele>
        <time>2020-06-08T19:57:19Z</time>
      </trkpt>
      <trkpt lat="47.82545" lon="-2.91873">
        <ele>139</ele>
        <time>2020-06-08T19:57:55Z</time>
      </trkpt>
      <trkpt lat="47.82555" lon="-2.91877">
        <ele>139</ele>
        <time>2020-06-08T19:58:04Z</time>
      </trkpt>
      <trkpt lat="47.82565" lon="-2.91886">
        <ele>139</ele>
        <time>2020-06-08T19:58:13Z</time>
      </trkpt>
      <trkpt lat="47.82571" lon="-2.91895">
        <ele>140</ele>
        <time>2020-06-08T19:58:20Z</time>
      </trkpt>
      <trkpt lat="47.8259" lon="-2.91947">
        <ele>139</ele>
        <time>2020-06-08T19:58:52Z</time>
      </trkpt>
      <trkpt lat="47.82516" lon="-2.92098">
        <ele>139</ele>
        <time>2020-06-08T20:00:32Z</time>
      </trkpt>
      <trkpt lat="47.82503" lon="-2.92117">
        <ele>140</ele>
        <time>2020-06-08T20:00:47Z</time>
      </trkpt>
      <trkpt lat="47.82496" lon="-2.92124">
        <ele>141</ele>
        <time>2020-06-08T20:00:53Z</time>
      </trkpt>
      <trkpt lat="47.82488" lon="-2.92127">
        <ele>141</ele>
        <time>2020-06-08T20:01:00Z</time>
      </trkpt>
      <trkpt lat="47.82434" lon="-2.92133">
        <ele>141</ele>
        <time>2020-06-08T20:01:43Z</time>
      </trkpt>
      <trkpt lat="47.82247" lon="-2.92565">
        <ele>149</ele>
        <time>2020-06-08T20:06:20Z</time>
      </trkpt>
      <trkpt lat="47.8217" lon="-2.92752">
        <ele>150</ele>
        <time>2020-06-08T20:08:18Z</time>
      </trkpt>
      <trkpt lat="47.82116" lon="-2.92875">
        <ele>148</ele>
        <time>2020-06-08T20:09:37Z</time>
      </trkpt>
      <trkpt lat="47.82113" lon="-2.92889">
        <ele>148</ele>
        <time>2020-06-08T20:09:45Z</time>
      </trkpt>
      <trkpt lat="47.82125" lon="-2.92946">
        <ele>148</ele>
        <time>2020-06-08T20:10:17Z</time>
      </trkpt>
      <trkpt lat="47.82206" lon="-2.93274">
        <ele>145</ele>
        <time>2020-06-08T20:13:25Z</time>
      </trkpt>
      <trkpt lat="47.8223" lon="-2.9346">
        <ele>143</ele>
        <time>2020-06-08T20:15:06Z</time>
      </trkpt>
      <trkpt lat="47.8226" lon="-2.93599">
        <ele>142</ele>
        <time>2020-06-08T20:16:25Z</time>
      </trkpt>
      <trkpt lat="47.82272" lon="-2.93638">
        <ele>141</ele>
        <time>2020-06-08T20:16:48Z</time>
      </trkpt>
      <trkpt lat="47.82455" lon="-2.94067">
        <ele>138</ele>
        <time>2020-06-08T20:21:21Z</time>
      </trkpt>
      <trkpt lat="47.82466" lon="-2.94099">
        <ele>138</ele>
        <time>2020-06-08T20:21:40Z</time>
      </trkpt>
      <trkpt lat="47.82485" lon="-2.94241">
        <ele>139</ele>
        <time>2020-06-08T20:22:58Z</time>
      </trkpt>
      <trkpt lat="47.82506" lon="-2.94348">
        <ele>140</ele>
        <time>2020-06-08T20:23:58Z</time>
      </trkpt>
      <trkpt lat="47.82519" lon="-2.94378">
        <ele>140</ele>
        <time>2020-06-08T20:24:17Z</time>
      </trkpt>
      <trkpt lat="47.82529" lon="-2.94412">
        <ele>140</ele>
        <time>2020-06-08T20:24:37Z</time>
      </trkpt>
      <trkpt lat="47.82551" lon="-2.9453">
        <ele>138</ele>
        <time>2020-06-08T20:25:43Z</time>
      </trkpt>
      <trkpt lat="47.82557" lon="-2.94552">
        <ele>137</ele>
        <time>2020-06-08T20:25:56Z</time>
      </trkpt>
      <trkpt lat="47.82568" lon="-2.94629">
        <ele>136</ele>
        <time>2020-06-08T20:26:38Z</time>
      </trkpt>
      <trkpt lat="47.82592" lon="-2.94752">
        <ele>137</ele>
        <time>2020-06-08T20:27:47Z</time>
      </trkpt>
      <trkpt lat="47.82625" lon="-2.94959">
        <ele>136</ele>
        <time>2020-06-08T20:29:42Z</time>
      </trkpt>
      <trkpt lat="47.82646" lon="-2.95017">
        <ele>136</ele>
        <time>2020-06-08T20:30:17Z</time>
      </trkpt>
      <trkpt lat="47.82719" lon="-2.95297">
        <ele>137</ele>
        <time>2020-06-08T20:32:58Z</time>
      </trkpt>
      <trkpt lat="47.82747" lon="-2.95359">
        <ele>137</ele>
        <time>2020-06-08T20:33:39Z</time>
      </trkpt>
      <trkpt lat="47.82783" lon="-2.95417">
        <ele>137</ele>
        <time>2020-06-08T20:34:21Z</time>
      </trkpt>
      <trkpt lat="47.82801" lon="-2.95439">
        <ele>136</ele>
        <time>2020-06-08T20:34:40Z</time>
      </trkpt>
      <trkpt lat="47.82899" lon="-2.95669">
        <ele>136</ele>
        <time>2020-06-08T20:37:06Z</time>
      </trkpt>
      <trkpt lat="47.82925" lon="-2.95715">
        <ele>134</ele>
        <time>2020-06-08T20:37:38Z</time>
      </trkpt>
      <trkpt lat="47.82959" lon="-2.95807">
        <ele>130</ele>
        <time>2020-06-08T20:38:35Z</time>
      </trkpt>
      <trkpt lat="47.82974" lon="-2.95877">
        <ele>128</ele>
        <time>2020-06-08T20:39:14Z</time>
      </trkpt>
      <trkpt lat="47.8298" lon="-2.95962">
        <ele>128</ele>
        <time>2020-06-08T20:40:00Z</time>
      </trkpt>
      <trkpt lat="47.82989" lon="-2.96026">
        <ele>127</ele>
        <time>2020-06-08T20:40:36Z</time>
      </trkpt>
      <trkpt lat="47.82986" lon="-2.96144">
        <ele>129</ele>
        <time>2020-06-08T20:41:39Z</time>
      </trkpt>
      <trkpt lat="47.83002" lon="-2.963">
        <ele>128</ele>
        <time>2020-06-08T20:43:04Z</time>
      </trkpt>
      <trkpt lat="47.83005" lon="-2.96352">
        <ele>128</ele>
        <time>2020-06-08T20:43:32Z</time>
      </trkpt>
      <trkpt lat="47.83002" lon="-2.96396">
        <ele>127</ele>
        <time>2020-06-08T20:43:56Z</time>
      </trkpt>
      <trkpt lat="47.82994" lon="-2.96449">
        <ele>127</ele>
        <time>2020-06-08T20:44:25Z</time>
      </trkpt>
      <trkpt lat="47.82989" lon="-2.96523">
        <ele>126</ele>
        <time>2020-06-08T20:45:05Z</time>
      </trkpt>
      <trkpt lat="47.82966" lon="-2.96685">
        <ele>120</ele>
        <time>2020-06-08T20:46:34Z</time>
      </trkpt>
      <trkpt lat="47.82956" lon="-2.96783">
        <ele>122</ele>
        <time>2020-06-08T20:47:27Z</time>
      </trkpt>
      <trkpt lat="47.82943" lon="-2.96825">
        <ele>124</ele>
        <time>2020-06-08T20:47:52Z</time>
      </trkpt>
      <trkpt lat="47.82898" lon="-2.97017">
        <ele>125</ele>
        <time>2020-06-08T20:49:41Z</time>
      </trkpt>
      <trkpt lat="47.8288" lon="-2.9705">
        <ele>124</ele>
        <time>2020-06-08T20:50:04Z</time>
      </trkpt>
      <trkpt lat="47.82541" lon="-2.97421">
        <ele>96</ele>
        <time>2020-06-08T20:55:41Z</time>
      </trkpt>
      <trkpt lat="47.82535" lon="-2.9743">
        <ele>95</ele>
        <time>2020-06-08T20:55:48Z</time>
      </trkpt>
      <trkpt lat="47.82531" lon="-2.97442">
        <ele>94</ele>
        <time>2020-06-08T20:55:55Z</time>
      </trkpt>
      <trkpt lat="47.82529" lon="-2.9749">
        <ele>92</ele>
        <time>2020-06-08T20:56:21Z</time>
      </trkpt>
      <trkpt lat="47.82524" lon="-2.97521">
        <ele>91</ele>
        <time>2020-06-08T20:56:38Z</time>
      </trkpt>
      <trkpt lat="47.82519" lon="-2.97531">
        <ele>91</ele>
        <time>2020-06-08T20:56:45Z</time>
      </trkpt>
      <trkpt lat="47.82504" lon="-2.97545">
        <ele>91</ele>
        <time>2020-06-08T20:56:59Z</time>
      </trkpt>
      <trkpt lat="47.82268" lon="-2.97305">
        <ele>87</ele>
        <time>2020-06-08T21:00:48Z</time>
      </trkpt>
      <trkpt lat="47.82078" lon="-2.97167">
        <ele>76</ele>
        <time>2020-06-08T21:03:37Z</time>
      </trkpt>
      <trkpt lat="47.81948" lon="-2.97122">
        <ele>81</ele>
        <time>2020-06-08T21:05:24Z</time>
      </trkpt>
      <trkpt lat="47.81903" lon="-2.97163">
        <ele>87</ele>
        <time>2020-06-08T21:06:06Z</time>
      </trkpt>
      <trkpt lat="47.81863" lon="-2.97245">
        <ele>95</ele>
        <time>2020-06-08T21:07:00Z</time>
      </trkpt>
      <trkpt lat="47.81771" lon="-2.97365">
        <ele>111</ele>
        <time>2020-06-08T21:08:38Z</time>
      </trkpt>
      <trkpt lat="47.81578" lon="-2.97206">
        <ele>110</ele>
        <time>2020-06-08T21:11:35Z</time>
      </trkpt>
      <trkpt lat="47.81658" lon="-2.97725">
        <ele>119</ele>
        <time>2020-06-08T21:16:21Z</time>
      </trkpt>
      <trkpt lat="47.81674" lon="-2.97805">
        <ele>118</ele>
        <time>2020-06-08T21:17:06Z</time>
      </trkpt>
      <trkpt lat="47.81706" lon="-2.97912">
        <ele>120</ele>
        <time>2020-06-08T21:18:09Z</time>
      </trkpt>
      <trkpt lat="47.81655" lon="-2.97942">
        <ele>118</ele>
        <time>2020-06-08T21:18:53Z</time>
      </trkpt>
      <trkpt lat="47.81741" lon="-2.98327">
        <ele>129</ele>
        <time>2020-06-08T21:22:31Z</time>
      </trkpt>
      <trkpt lat="47.8173" lon="-2.98363">
        <ele>129</ele>
        <time>2020-06-08T21:22:52Z</time>
      </trkpt>
      <trkpt lat="47.81804" lon="-2.98709">
        <ele>128</ele>
        <time>2020-06-08T21:26:08Z</time>
      </trkpt>
      <trkpt lat="47.81786" lon="-2.98719">
        <ele>127</ele>
        <time>2020-06-08T21:26:23Z</time>
      </trkpt>
      <trkpt lat="47.81805" lon="-2.98807">
        <ele>127</ele>
        <time>2020-06-08T21:27:13Z</time>
      </trkpt>
      <trkpt lat="47.82047" lon="-2.98884">
        <ele>124</ele>
        <time>2020-06-08T21:30:31Z</time>
      </trkpt>
      <trkpt lat="47.82047" lon="-2.98888">
        <ele>124</ele>
        <time>2020-06-08T21:30:33Z</time>
      </trkpt>
      <trkpt lat="47.82196" lon="-2.98932">
        <ele>118</ele>
        <time>2020-06-08T21:32:35Z</time>
      </trkpt>
      <trkpt lat="47.82388" lon="-2.98973">
        <ele>115</ele>
        <time>2020-06-08T21:35:10Z</time>
      </trkpt>
      <trkpt lat="47.82444" lon="-2.98982">
        <ele>115</ele>
        <time>2020-06-08T21:35:55Z</time>
      </trkpt>
      <trkpt lat="47.82475" lon="-2.98993">
        <ele>114</ele>
        <time>2020-06-08T21:36:21Z</time>
      </trkpt>
      <trkpt lat="47.82563" lon="-2.99008">
        <ele>115</ele>
        <time>2020-06-08T21:37:32Z</time>
      </trkpt>
      <trkpt lat="47.82576" lon="-2.99013">
        <ele>115</ele>
        <time>2020-06-08T21:37:42Z</time>
      </trkpt>
      <trkpt lat="47.82609" lon="-2.99037">
        <ele>115</ele>
        <time>2020-06-08T21:38:12Z</time>
      </trkpt>
      <trkpt lat="47.82633" lon="-2.9906">
        <ele>116</ele>
        <time>2020-06-08T21:38:35Z</time>
      </trkpt>
      <trkpt lat="47.82717" lon="-2.99168">
        <ele>118</ele>
        <time>2020-06-08T21:40:03Z</time>
      </trkpt>
      <trkpt lat="47.82763" lon="-2.99236">
        <ele>119</ele>
        <time>2020-06-08T21:40:55Z</time>
      </trkpt>
      <trkpt lat="47.82782" lon="-2.99257">
        <ele>119</ele>
        <time>2020-06-08T21:41:14Z</time>
      </trkpt>
      <trkpt lat="47.82823" lon="-2.99286">
        <ele>120</ele>
        <time>2020-06-08T21:41:51Z</time>
      </trkpt>
      <trkpt lat="47.82843" lon="-2.99303">
        <ele>120</ele>
        <time>2020-06-08T21:42:09Z</time>
      </trkpt>
      <trkpt lat="47.82892" lon="-2.99357">
        <ele>122</ele>
        <time>2020-06-08T21:42:58Z</time>
      </trkpt>
      <trkpt lat="47.82921" lon="-2.99382">
        <ele>122</ele>
        <time>2020-06-08T21:43:25Z</time>
      </trkpt>
      <trkpt lat="47.82939" lon="-2.99394">
        <ele>123</ele>
        <time>2020-06-08T21:43:40Z</time>
      </trkpt>
      <trkpt lat="47.82991" lon="-2.99413">
        <ele>123</ele>
        <time>2020-06-08T21:44:23Z</time>
      </trkpt>
      <trkpt lat="47.83054" lon="-2.99427">
        <ele>121</ele>
        <time>2020-06-08T21:45:14Z</time>
      </trkpt>
      <trkpt lat="47.8306" lon="-2.9945">
        <ele>121</ele>
        <time>2020-06-08T21:45:28Z</time>
      </trkpt>
      <trkpt lat="47.83062" lon="-2.99468">
        <ele>120</ele>
        <time>2020-06-08T21:45:37Z</time>
      </trkpt>
      <trkpt lat="47.83061" lon="-2.99494">
        <ele>120</ele>
        <time>2020-06-08T21:45:51Z</time>
      </trkpt>
      <trkpt lat="47.83054" lon="-2.99602">
        <ele>118</ele>
        <time>2020-06-08T21:46:50Z</time>
      </trkpt>
      <trkpt lat="47.83094" lon="-2.99874">
        <ele>116</ele>
        <time>2020-06-08T21:49:19Z</time>
      </trkpt>
      <trkpt lat="47.83096" lon="-2.99994">
        <ele>115</ele>
        <time>2020-06-08T21:50:24Z</time>
      </trkpt>
      <trkpt lat="47.831" lon="-3.00057">
        <ele>114</ele>
        <time>2020-06-08T21:50:58Z</time>
      </trkpt>
      <trkpt lat="47.83111" lon="-3.0015">
        <ele>113</ele>
        <time>2020-06-08T21:51:49Z</time>
      </trkpt>
      <trkpt lat="47.83114" lon="-3.00449">
        <ele>112</ele>
        <time>2020-06-08T21:54:29Z</time>
      </trkpt>
      <trkpt lat="47.83123" lon="-3.00502">
        <ele>114</ele>
        <time>2020-06-08T21:54:59Z</time>
      </trkpt>
      <trkpt lat="47.83117" lon="-3.00506">
        <ele>114</ele>
        <time>2020-06-08T21:55:04Z</time>
      </trkpt>
      <trkpt lat="47.83114" lon="-3.00522">
        <ele>115</ele>
        <time>2020-06-08T21:55:13Z</time>
      </trkpt>
      <trkpt lat="47.83115" lon="-3.00528">
        <ele>115</ele>
        <time>2020-06-08T21:55:16Z</time>
      </trkpt>
      <trkpt lat="47.83123" lon="-3.00537">
        <ele>115</ele>
        <time>2020-06-08T21:55:24Z</time>
      </trkpt>
      <trkpt lat="47.83111" lon="-3.00542">
        <ele>115</ele>
        <time>2020-06-08T21:55:34Z</time>
      </trkpt>
      <trkpt lat="47.83059" lon="-3.00585">
        <ele>114</ele>
        <time>2020-06-08T21:56:22Z</time>
      </trkpt>
      <trkpt lat="47.82984" lon="-3.00627">
        <ele>111</ele>
        <time>2020-06-08T21:57:26Z</time>
      </trkpt>
      <trkpt lat="47.8296" lon="-3.00646">
        <ele>111</ele>
        <time>2020-06-08T21:57:48Z</time>
      </trkpt>
      <trkpt lat="47.82951" lon="-3.00657">
        <ele>112</ele>
        <time>2020-06-08T21:57:57Z</time>
      </trkpt>
      <trkpt lat="47.82933" lon="-3.00683">
        <ele>111</ele>
        <time>2020-06-08T21:58:17Z</time>
      </trkpt>
      <trkpt lat="47.82911" lon="-3.00723">
        <ele>111</ele>
        <time>2020-06-08T21:58:45Z</time>
      </trkpt>
      <trkpt lat="47.82727" lon="-3.01075">
        <ele>118</ele>
        <time>2020-06-08T22:02:45Z</time>
      </trkpt>
      <trkpt lat="47.82988" lon="-3.01177">
        <ele>115</ele>
        <time>2020-06-08T22:06:21Z</time>
      </trkpt>
      <trkpt lat="47.82914" lon="-3.01626">
        <ele>123</ele>
        <time>2020-06-08T22:10:29Z</time>
      </trkpt>
      <trkpt lat="47.82615" lon="-3.01512">
        <ele>126</ele>
        <time>2020-06-08T22:14:37Z</time>
      </trkpt>
      <trkpt lat="47.82601" lon="-3.01505">
        <ele>125</ele>
        <time>2020-06-08T22:14:48Z</time>
      </trkpt>
      <trkpt lat="47.82597" lon="-3.015">
        <ele>125</ele>
        <time>2020-06-08T22:14:53Z</time>
      </trkpt>
      <trkpt lat="47.82592" lon="-3.02197">
        <ele>121</ele>
        <time>2020-06-08T22:21:07Z</time>
      </trkpt>
      <trkpt lat="47.8267" lon="-3.02772">
        <ele>102</ele>
        <time>2020-06-08T22:26:23Z</time>
      </trkpt>
      <trkpt lat="47.82754" lon="-3.02786">
        <ele>101</ele>
        <time>2020-06-08T22:27:30Z</time>
      </trkpt>
      <trkpt lat="47.83577" lon="-3.02437">
        <ele>123</ele>
        <time>2020-06-08T22:38:55Z</time>
      </trkpt>
      <trkpt lat="47.8359" lon="-3.02433">
        <ele>123</ele>
        <time>2020-06-08T22:39:06Z</time>
      </trkpt>
      <trkpt lat="47.83642" lon="-3.02449">
        <ele>125</ele>
        <time>2020-06-08T22:39:49Z</time>
      </trkpt>
      <trkpt lat="47.83824" lon="-3.02201">
        <ele>127</ele>
        <time>2020-06-08T22:43:06Z</time>
      </trkpt>
      <trkpt lat="47.83942" lon="-3.02564">
        <ele>123</ele>
        <time>2020-06-08T22:46:43Z</time>
      </trkpt>
      <trkpt lat="47.84087" lon="-3.02798">
        <ele>128</ele>
        <time>2020-06-08T22:49:34Z</time>
      </trkpt>
      <trkpt lat="47.84211" lon="-3.02927">
        <ele>123</ele>
        <time>2020-06-08T22:51:35Z</time>
      </trkpt>
      <trkpt lat="47.8437" lon="-3.03201">
        <ele>113</ele>
        <time>2020-06-08T22:54:50Z</time>
      </trkpt>
      <trkpt lat="47.84368" lon="-3.03205">
        <ele>112</ele>
        <time>2020-06-08T22:54:52Z</time>
      </trkpt>
      <trkpt lat="47.84432" lon="-3.03241">
        <ele>113</ele>
        <time>2020-06-08T22:55:47Z</time>
      </trkpt>
      <trkpt lat="47.845" lon="-3.03324">
        <ele>112</ele>
        <time>2020-06-08T22:56:58Z</time>
      </trkpt>
      <trkpt lat="47.84514" lon="-3.03334">
        <ele>112</ele>
        <time>2020-06-08T22:57:10Z</time>
      </trkpt>
      <trkpt lat="47.84553" lon="-3.03353">
        <ele>112</ele>
        <time>2020-06-08T22:57:43Z</time>
      </trkpt>
      <trkpt lat="47.84573" lon="-3.0336">
        <ele>113</ele>
        <time>2020-06-08T22:57:59Z</time>
      </trkpt>
      <trkpt lat="47.84583" lon="-3.03366">
        <ele>113</ele>
        <time>2020-06-08T22:58:08Z</time>
      </trkpt>
      <trkpt lat="47.84592" lon="-3.03376">
        <ele>112</ele>
        <time>2020-06-08T22:58:17Z</time>
      </trkpt>
      <trkpt lat="47.84643" lon="-3.03386">
        <ele>112</ele>
        <time>2020-06-08T22:58:58Z</time>
      </trkpt>
      <trkpt lat="47.8465" lon="-3.0339">
        <ele>112</ele>
        <time>2020-06-08T22:59:04Z</time>
      </trkpt>
      <trkpt lat="47.84663" lon="-3.0341">
        <ele>111</ele>
        <time>2020-06-08T22:59:19Z</time>
      </trkpt>
      <trkpt lat="47.84824" lon="-3.033">
        <ele>106</ele>
        <time>2020-06-08T23:01:41Z</time>
      </trkpt>
      <trkpt lat="47.84824" lon="-3.03154">
        <ele>115</ele>
        <time>2020-06-08T23:02:59Z</time>
      </trkpt>
      <trkpt lat="47.84866" lon="-3.02926">
        <ele>110</ele>
        <time>2020-06-08T23:05:06Z</time>
      </trkpt>
      <trkpt lat="47.84929" lon="-3.03054">
        <ele>107</ele>
        <time>2020-06-08T23:06:32Z</time>
      </trkpt>
      <trkpt lat="47.8496" lon="-3.03076">
        <ele>106</ele>
        <time>2020-06-08T23:06:59Z</time>
      </trkpt>
      <trkpt lat="47.8498" lon="-3.03074">
        <ele>104</ele>
        <time>2020-06-08T23:07:15Z</time>
      </trkpt>
      <trkpt lat="47.85" lon="-3.03076">
        <ele>103</ele>
        <time>2020-06-08T23:07:31Z</time>
      </trkpt>
      <trkpt lat="47.85013" lon="-3.03079">
        <ele>102</ele>
        <time>2020-06-08T23:07:42Z</time>
      </trkpt>
      <trkpt lat="47.85024" lon="-3.0309">
        <ele>102</ele>
        <time>2020-06-08T23:07:52Z</time>
      </trkpt>
      <trkpt lat="47.85057" lon="-3.03039">
        <ele>101</ele>
        <time>2020-06-08T23:08:30Z</time>
      </trkpt>
      <trkpt lat="47.85084" lon="-3.02988">
        <ele>102</ele>
        <time>2020-06-08T23:09:05Z</time>
      </trkpt>
      <trkpt lat="47.85109" lon="-3.02951">
        <ele>101</ele>
        <time>2020-06-08T23:09:34Z</time>
      </trkpt>
      <trkpt lat="47.85163" lon="-3.02891">
        <ele>100</ele>
        <time>2020-06-08T23:10:27Z</time>
      </trkpt>
      <trkpt lat="47.85225" lon="-3.02828">
        <ele>97</ele>
        <time>2020-06-08T23:11:28Z</time>
      </trkpt>
      <trkpt lat="47.85246" lon="-3.02802">
        <ele>98</ele>
        <time>2020-06-08T23:11:49Z</time>
      </trkpt>
      <trkpt lat="47.85264" lon="-3.02785">
        <ele>98</ele>
        <time>2020-06-08T23:12:06Z</time>
      </trkpt>
      <trkpt lat="47.85315" lon="-3.02755">
        <ele>96</ele>
        <time>2020-06-08T23:12:50Z</time>
      </trkpt>
      <trkpt lat="47.85485" lon="-3.02663">
        <ele>95</ele>
        <time>2020-06-08T23:15:15Z</time>
      </trkpt>
      <trkpt lat="47.85516" lon="-3.0264">
        <ele>95</ele>
        <time>2020-06-08T23:15:43Z</time>
      </trkpt>
      <trkpt lat="47.85522" lon="-3.02631">
        <ele>95</ele>
        <time>2020-06-08T23:15:50Z</time>
      </trkpt>
      <trkpt lat="47.85573" lon="-3.02926">
        <ele>85</ele>
        <time>2020-06-08T23:18:33Z</time>
      </trkpt>
      <trkpt lat="47.8562" lon="-3.03212">
        <ele>87</ele>
        <time>2020-06-08T23:21:12Z</time>
      </trkpt>
      <trkpt lat="47.85625" lon="-3.03253">
        <ele>88</ele>
        <time>2020-06-08T23:21:34Z</time>
      </trkpt>
      <trkpt lat="47.85635" lon="-3.03299">
        <ele>89</ele>
        <time>2020-06-08T23:22:00Z</time>
      </trkpt>
      <trkpt lat="47.85646" lon="-3.03334">
        <ele>91</ele>
        <time>2020-06-08T23:22:21Z</time>
      </trkpt>
      <trkpt lat="47.85656" lon="-3.03354">
        <ele>91</ele>
        <time>2020-06-08T23:22:34Z</time>
      </trkpt>
      <trkpt lat="47.8567" lon="-3.03378">
        <ele>92</ele>
        <time>2020-06-08T23:22:51Z</time>
      </trkpt>
      <trkpt lat="47.85782" lon="-3.03544">
        <ele>97</ele>
        <time>2020-06-08T23:24:58Z</time>
      </trkpt>
      <trkpt lat="47.85814" lon="-3.03618">
        <ele>102</ele>
        <time>2020-06-08T23:25:45Z</time>
      </trkpt>
      <trkpt lat="47.85827" lon="-3.0368">
        <ele>105</ele>
        <time>2020-06-08T23:26:20Z</time>
      </trkpt>
      <trkpt lat="47.85899" lon="-3.04081">
        <ele>106</ele>
        <time>2020-06-08T23:30:03Z</time>
      </trkpt>
      <trkpt lat="47.86097" lon="-3.03928">
        <ele>78</ele>
        <time>2020-06-08T23:33:01Z</time>
      </trkpt>
      <trkpt lat="47.86173" lon="-3.03864">
        <ele>66</ele>
        <time>2020-06-08T23:34:11Z</time>
      </trkpt>
      <trkpt lat="47.86441" lon="-3.03653">
        <ele>45</ele>
        <time>2020-06-08T23:38:14Z</time>
      </trkpt>
      <trkpt lat="47.86466" lon="-3.03635">
        <ele>42</ele>
        <time>2020-06-08T23:38:36Z</time>
      </trkpt>
      <trkpt lat="47.86486" lon="-3.03626">
        <ele>38</ele>
        <time>2020-06-08T23:38:53Z</time>
      </trkpt>
      <trkpt lat="47.86486" lon="-3.03635">
        <ele>38</ele>
        <time>2020-06-08T23:38:58Z</time>
      </trkpt>
      <trkpt lat="47.86485" lon="-3.0342">
        <ele>44</ele>
        <time>2020-06-08T23:40:53Z</time>
      </trkpt>
      <trkpt lat="47.86485" lon="-3.03437">
        <ele>44</ele>
        <time>2020-06-08T23:41:02Z</time>
      </trkpt>
      <trkpt lat="47.86687" lon="-3.03407">
        <ele>28</ele>
        <time>2020-06-08T23:43:45Z</time>
      </trkpt>
      <trkpt lat="47.86789" lon="-3.03386">
        <ele>30</ele>
        <time>2020-06-08T23:45:07Z</time>
      </trkpt>
      <trkpt lat="47.86798" lon="-3.03389">
        <ele>31</ele>
        <time>2020-06-08T23:45:15Z</time>
      </trkpt>
      <trkpt lat="47.86822" lon="-3.03415">
        <ele>31</ele>
        <time>2020-06-08T23:45:39Z</time>
      </trkpt>
      <trkpt lat="47.86829" lon="-3.03438">
        <ele>31</ele>
        <time>2020-06-08T23:45:52Z</time>
      </trkpt>
      <trkpt lat="47.86879" lon="-3.0351">
        <ele>35</ele>
        <time>2020-06-08T23:46:48Z</time>
      </trkpt>
      <trkpt lat="47.86894" lon="-3.03525">
        <ele>36</ele>
        <time>2020-06-08T23:47:02Z</time>
      </trkpt>
      <trkpt lat="47.86927" lon="-3.03547">
        <ele>37</ele>
        <time>2020-06-08T23:47:31Z</time>
      </trkpt>
      <trkpt lat="47.87127" lon="-3.0361">
        <ele>45</ele>
        <time>2020-06-08T23:50:15Z</time>
      </trkpt>
      <trkpt lat="47.87138" lon="-3.03576">
        <ele>45</ele>
        <time>2020-06-08T23:50:35Z</time>
      </trkpt>
    </trkseg>
  </trk>
</gpx>